<?xml version='1.0' encoding='UTF-8'?><gpx version="1.1" creator="JPX - https://github.com/jenetics/jpx" xmlns="http://www.topografix.com/GPX/1/1"><trk><trkseg><trkpt lat="45.650176751987026" lon="3.0383426639990825"><ele>754.0</ele><time>2026-04-19T15:33:51.999Z</time></trkpt><trkpt lat="45.65028095307749" lon="3.0383605295030596"><ele>754.0</ele><time>2026-04-19T15:33:53.999Z</time></trkpt><trkpt lat="45.65038398222486" lon="3.0384417103050954"><ele>754.0</ele><time>2026-04-19T15:33:55.999Z</time></trkpt><trkpt lat="45.650479693258404" lon="3.0385559543628835"><ele>754.0</ele><time>2026-04-19T15:33:57.999Z</time></trkpt><trkpt lat="45.65052597120538" lon="3.038621974491713"><ele>754.0</ele><time>2026-04-19T15:33:58.999Z</time></trkpt><trkpt lat="45.650569048742966" lon="3.0386922499805675"><ele>753.4285714285713</ele><time>2026-04-19T15:33:59.999Z</time></trkpt><trkpt lat="45.65061117499698" lon="3.0387672453943186"><ele>752.8571428571429</ele><time>2026-04-19T15:34:00.999Z</time></trkpt><trkpt lat="45.65065198055049" lon="3.0388449138027207"><ele>752.2857142857142</ele><time>2026-04-19T15:34:01.999Z</time></trkpt><trkpt lat="45.65069677859261" lon="3.038919891703539"><ele>751.7142857142857</ele><time>2026-04-19T15:34:02.999Z</time></trkpt><trkpt lat="45.65074477394904" lon="3.0389937206546698"><ele>751.1428571428571</ele><time>2026-04-19T15:34:03.999Z</time></trkpt><trkpt lat="45.650787025169635" lon="3.0390704022092287"><ele>750.5714285714286</ele><time>2026-04-19T15:34:04.999Z</time></trkpt><trkpt lat="45.65081910539604" lon="3.0391519129480327"><ele>750.0</ele><time>2026-04-19T15:34:05.999Z</time></trkpt><trkpt lat="45.650867828396194" lon="3.039304010291064"><ele>749.4</ele><time>2026-04-19T15:34:07.999Z</time></trkpt><trkpt lat="45.65088685556253" lon="3.0394597062242465"><ele>748.8</ele><time>2026-04-19T15:34:09.999Z</time></trkpt><trkpt lat="45.65089433384635" lon="3.039610631426802"><ele>748.2</ele><time>2026-04-19T15:34:11.999Z</time></trkpt><trkpt lat="45.6509028375186" lon="3.0397449259957114"><ele>747.6</ele><time>2026-04-19T15:34:13.999Z</time></trkpt><trkpt lat="45.65094336361611" lon="3.03986295789692"><ele>747.0</ele><time>2026-04-19T15:34:15.999Z</time></trkpt><trkpt lat="45.65099992009438" lon="3.0399573263706814"><ele>746.6666666666666</ele><time>2026-04-19T15:34:17.999Z</time></trkpt><trkpt lat="45.6510736630738" lon="3.040035353328666"><ele>746.3333333333334</ele><time>2026-04-19T15:34:20Z</time></trkpt><trkpt lat="45.65107282164244" lon="3.040132403487641"><ele>746.0</ele><time>2026-04-19T15:34:21Z</time></trkpt><trkpt lat="45.651121074735805" lon="3.04021828077856"><ele>745.6666666666667</ele><time>2026-04-19T15:34:52Z</time></trkpt><trkpt lat="45.651198606719035" lon="3.0402958352264737"><ele>745.3333333333334</ele><time>2026-04-19T15:34:55Z</time></trkpt><trkpt lat="45.651262443495256" lon="3.040356106424298"><ele>745.0</ele><time>2026-04-19T15:34:57Z</time></trkpt><trkpt lat="45.65132587362257" lon="3.0404325125330383"><ele>744.1666666666667</ele><time>2026-04-19T15:34:59Z</time></trkpt><trkpt lat="45.65139824456297" lon="3.0405038809567033"><ele>743.3333333333334</ele><time>2026-04-19T15:35:01Z</time></trkpt><trkpt lat="45.65147306450671" lon="3.040572087712833"><ele>742.5</ele><time>2026-04-19T15:35:03Z</time></trkpt><trkpt lat="45.6515452918786" lon="3.0406396518644137"><ele>741.6666666666666</ele><time>2026-04-19T15:35:05Z</time></trkpt><trkpt lat="45.65161912636656" lon="3.0406910340047713"><ele>740.8333333333333</ele><time>2026-04-19T15:35:07Z</time></trkpt><trkpt lat="45.65168576946684" lon="3.0407433476397454"><ele>740.0</ele><time>2026-04-19T15:35:09Z</time></trkpt><trkpt lat="45.65175469221304" lon="3.0407978124444637"><ele>740.5</ele><time>2026-04-19T15:35:11Z</time></trkpt><trkpt lat="45.65182050008847" lon="3.0408515719402107"><ele>741.0</ele><time>2026-04-19T15:35:13Z</time></trkpt><trkpt lat="45.651885697849984" lon="3.0409119981467576"><ele>741.5</ele><time>2026-04-19T15:35:15Z</time></trkpt><trkpt lat="45.65195444212583" lon="3.0409629757214285"><ele>742.0</ele><time>2026-04-19T15:35:17Z</time></trkpt><trkpt lat="45.65202898171517" lon="3.0410299207956784"><ele>742.5</ele><time>2026-04-19T15:35:19Z</time></trkpt><trkpt lat="45.65211024170566" lon="3.0411119203636585"><ele>743.0</ele><time>2026-04-19T15:35:21Z</time></trkpt><trkpt lat="45.652188300472275" lon="3.0412094480987037"><ele>743.0</ele><time>2026-04-19T15:35:23Z</time></trkpt><trkpt lat="45.65225441170851" lon="3.0413167976055706"><ele>743.0</ele><time>2026-04-19T15:35:25Z</time></trkpt><trkpt lat="45.65232421897756" lon="3.0414241696005724"><ele>743.0</ele><time>2026-04-19T15:35:26.999Z</time></trkpt><trkpt lat="45.652387296143544" lon="3.041528085690091"><ele>743.0</ele><time>2026-04-19T15:35:28.999Z</time></trkpt><trkpt lat="45.65244716179401" lon="3.041630663116044"><ele>743.0</ele><time>2026-04-19T15:35:30.999Z</time></trkpt><trkpt lat="45.652513354496385" lon="3.0417253985724604"><ele>743.0</ele><time>2026-04-19T15:35:32.999Z</time></trkpt><trkpt lat="45.65257878553786" lon="3.0418232499781555"><ele>743.0</ele><time>2026-04-19T15:35:34.999Z</time></trkpt><trkpt lat="45.65262510451077" lon="3.0419474103087447"><ele>743.0</ele><time>2026-04-19T15:35:36.999Z</time></trkpt><trkpt lat="45.65266530661381" lon="3.042075022278833"><ele>743.0</ele><time>2026-04-19T15:35:38.999Z</time></trkpt><trkpt lat="45.652713277800245" lon="3.042191675283708"><ele>743.0</ele><time>2026-04-19T15:35:40.999Z</time></trkpt><trkpt lat="45.65274764117444" lon="3.0423218940213186"><ele>743.0</ele><time>2026-04-19T15:35:42.999Z</time></trkpt><trkpt lat="45.652787137988554" lon="3.042450505091774"><ele>743.0</ele><time>2026-04-19T15:35:44.999Z</time></trkpt><trkpt lat="45.652828045898296" lon="3.0425749037518997"><ele>743.0</ele><time>2026-04-19T15:35:46.999Z</time></trkpt><trkpt lat="45.6528696422731" lon="3.042700944737406"><ele>743.0</ele><time>2026-04-19T15:35:48.999Z</time></trkpt><trkpt lat="45.652919075299955" lon="3.0428174857487047"><ele>743.0</ele><time>2026-04-19T15:35:50.999Z</time></trkpt><trkpt lat="45.65297759376116" lon="3.0429207027544805"><ele>742.8333333333333</ele><time>2026-04-19T15:35:52.999Z</time></trkpt><trkpt lat="45.65305432045626" lon="3.0429914461674303"><ele>742.6666666666666</ele><time>2026-04-19T15:35:54.999Z</time></trkpt><trkpt lat="45.65312325070992" lon="3.0430683020323177"><ele>742.5</ele><time>2026-04-19T15:35:56.999Z</time></trkpt><trkpt lat="45.6531863180088" lon="3.043139517536308"><ele>742.3333333333334</ele><time>2026-04-19T15:35:58.999Z</time></trkpt><trkpt lat="45.65324162226913" lon="3.043226830096962"><ele>742.1666666666667</ele><time>2026-04-19T15:36:00.999Z</time></trkpt><trkpt lat="45.65327452328535" lon="3.04333191535478"><ele>742.0</ele><time>2026-04-19T15:36:02.999Z</time></trkpt><trkpt lat="45.653304505493956" lon="3.0434459793722435"><ele>742.0</ele><time>2026-04-19T15:36:04.999Z</time></trkpt><trkpt lat="45.6533447620917" lon="3.0435828141666956"><ele>742.0</ele><time>2026-04-19T15:36:06.999Z</time></trkpt><trkpt lat="45.65339774400348" lon="3.043722493433149"><ele>742.0</ele><time>2026-04-19T15:36:08.999Z</time></trkpt><trkpt lat="45.653448690085106" lon="3.0438544801147756"><ele>742.0</ele><time>2026-04-19T15:36:10.999Z</time></trkpt><trkpt lat="45.65349085217366" lon="3.0440043340132417"><ele>742.0</ele><time>2026-04-19T15:36:12.999Z</time></trkpt><trkpt lat="45.653506169997826" lon="3.044164719559076"><ele>741.0</ele><time>2026-04-19T15:36:14.999Z</time></trkpt><trkpt lat="45.65349956965022" lon="3.0443211233164127"><ele>740.0</ele><time>2026-04-19T15:36:16.999Z</time></trkpt><trkpt lat="45.65348327998301" lon="3.044489633973714"><ele>739.0</ele><time>2026-04-19T15:36:18.999Z</time></trkpt><trkpt lat="45.65347913153719" lon="3.044666829612419"><ele>738.0</ele><time>2026-04-19T15:36:20.999Z</time></trkpt><trkpt lat="45.653486858824806" lon="3.044848756559673"><ele>738.0</ele><time>2026-04-19T15:36:22.999Z</time></trkpt><trkpt lat="45.65348947408506" lon="3.044940559902765"><ele>738.0</ele><time>2026-04-19T15:36:23.999Z</time></trkpt><trkpt lat="45.65349810130951" lon="3.0450976811191675"><ele>738.0</ele><time>2026-04-19T15:36:26Z</time></trkpt><trkpt lat="45.653513587553995" lon="3.0452308936816075"><ele>738.0</ele><time>2026-04-19T15:36:28Z</time></trkpt><trkpt lat="45.653574220776946" lon="3.045333818680229"><ele>738.0</ele><time>2026-04-19T15:36:30Z</time></trkpt><trkpt lat="45.653657601251524" lon="3.0454132147603996"><ele>738.0</ele><time>2026-04-19T15:36:32Z</time></trkpt><trkpt lat="45.65374796743339" lon="3.0454716539024935"><ele>738.0</ele><time>2026-04-19T15:36:34Z</time></trkpt><trkpt lat="45.653832742211634" lon="3.0455254528611584"><ele>738.0</ele><time>2026-04-19T15:36:36Z</time></trkpt><trkpt lat="45.653901755526725" lon="3.045564839684455"><ele>738.0</ele><time>2026-04-19T15:36:38Z</time></trkpt><trkpt lat="45.65396646284114" lon="3.0456380000344403"><ele>738.0</ele><time>2026-04-19T15:36:41Z</time></trkpt><trkpt lat="45.653976991724505" lon="3.0457536474807827"><ele>738.0</ele><time>2026-04-19T15:36:43Z</time></trkpt><trkpt lat="45.653972564256804" lon="3.045890536267459"><ele>736.4</ele><time>2026-04-19T15:36:45Z</time></trkpt><trkpt lat="45.65396121287645" lon="3.0460220686541097"><ele>734.8</ele><time>2026-04-19T15:36:47Z</time></trkpt><trkpt lat="45.65395611348349" lon="3.046112960261731"><ele>733.2</ele><time>2026-04-19T15:36:49Z</time></trkpt><trkpt lat="45.653934642132" lon="3.046205576103563"><ele>731.6</ele><time>2026-04-19T15:36:52Z</time></trkpt><trkpt lat="45.653942688970595" lon="3.0462964450477594"><ele>730.0</ele><time>2026-04-19T15:36:55Z</time></trkpt><trkpt lat="45.65413836783288" lon="3.046437361103402"><ele>730.0</ele><time>2026-04-19T15:36:58Z</time></trkpt><trkpt lat="45.65419857614623" lon="3.046521064148876"><ele>730.0</ele><time>2026-04-19T15:37:00Z</time></trkpt><trkpt lat="45.654247138864726" lon="3.0466044244327413"><ele>730.0</ele><time>2026-04-19T15:37:02Z</time></trkpt><trkpt lat="45.65429287864916" lon="3.0467066747798914"><ele>730.0</ele><time>2026-04-19T15:37:04Z</time></trkpt><trkpt lat="45.654339271482776" lon="3.0468303270366515"><ele>730.0</ele><time>2026-04-19T15:37:06Z</time></trkpt><trkpt lat="45.65439759339842" lon="3.0469614733550503"><ele>728.2</ele><time>2026-04-19T15:37:08Z</time></trkpt><trkpt lat="45.654458236728054" lon="3.0470780242017104"><ele>726.4</ele><time>2026-04-19T15:37:10Z</time></trkpt><trkpt lat="45.654535588567335" lon="3.047198230968793"><ele>724.5999999999999</ele><time>2026-04-19T15:37:12Z</time></trkpt><trkpt lat="45.65462479836235" lon="3.047320228854768"><ele>722.8</ele><time>2026-04-19T15:37:14Z</time></trkpt><trkpt lat="45.654670844578185" lon="3.0473819636715027"><ele>721.0</ele><time>2026-04-19T15:37:15Z</time></trkpt><trkpt lat="45.654717177683345" lon="3.047445852618095"><ele>720.5999999999999</ele><time>2026-04-19T15:37:16Z</time></trkpt><trkpt lat="45.65476555618798" lon="3.0475079168552144"><ele>720.2</ele><time>2026-04-19T15:37:17Z</time></trkpt><trkpt lat="45.654855699575855" lon="3.04762979421524"><ele>719.8</ele><time>2026-04-19T15:37:19Z</time></trkpt><trkpt lat="45.654945175066125" lon="3.0477392767829175"><ele>719.4000000000001</ele><time>2026-04-19T15:37:21Z</time></trkpt><trkpt lat="45.655025398737145" lon="3.0478175562811494"><ele>719.0</ele><time>2026-04-19T15:37:23Z</time></trkpt><trkpt lat="45.65509925847225" lon="3.047884166133749"><ele>719.0</ele><time>2026-04-19T15:37:25Z</time></trkpt><trkpt lat="45.65515932102714" lon="3.0479438983489864"><ele>719.0</ele><time>2026-04-19T15:37:26.999Z</time></trkpt><trkpt lat="45.65522834118125" lon="3.0479926879670205"><ele>719.0</ele><time>2026-04-19T15:37:28.999Z</time></trkpt><trkpt lat="45.65530311200415" lon="3.048048211195356"><ele>719.0</ele><time>2026-04-19T15:37:30.999Z</time></trkpt><trkpt lat="45.655362062074886" lon="3.048097319836519"><ele>719.0</ele><time>2026-04-19T15:37:32.999Z</time></trkpt><trkpt lat="45.655410198139776" lon="3.0481849051948458"><ele>719.0</ele><time>2026-04-19T15:37:34.999Z</time></trkpt><trkpt lat="45.655449844468045" lon="3.048297500071899"><ele>718.5714285714286</ele><time>2026-04-19T15:37:36.999Z</time></trkpt><trkpt lat="45.655484883478636" lon="3.0484100983036577"><ele>718.1428571428571</ele><time>2026-04-19T15:37:38.999Z</time></trkpt><trkpt lat="45.655515380491686" lon="3.048510333822075"><ele>717.7142857142858</ele><time>2026-04-19T15:37:40.999Z</time></trkpt><trkpt lat="45.655544911989445" lon="3.0486080120599395"><ele>717.2857142857142</ele><time>2026-04-19T15:37:42.999Z</time></trkpt><trkpt lat="45.65558103073489" lon="3.048691503931036"><ele>716.8571428571429</ele><time>2026-04-19T15:37:44.999Z</time></trkpt><trkpt lat="45.65561320656262" lon="3.0487819192909473"><ele>716.4285714285714</ele><time>2026-04-19T15:37:46.999Z</time></trkpt><trkpt lat="45.65561878590097" lon="3.048874078866188"><ele>716.0</ele><time>2026-04-19T15:37:48.999Z</time></trkpt><trkpt lat="45.655625636750564" lon="3.048986150581393"><ele>716.0</ele><time>2026-04-19T15:37:50.999Z</time></trkpt><trkpt lat="45.6556408270391" lon="3.0490814755931868"><ele>716.0</ele><time>2026-04-19T15:37:52.999Z</time></trkpt><trkpt lat="45.65570436766046" lon="3.0491714245318207"><ele>716.0</ele><time>2026-04-19T15:37:55.999Z</time></trkpt><trkpt lat="45.655764153516344" lon="3.049239658385199"><ele>716.0</ele><time>2026-04-19T15:37:58.999Z</time></trkpt><trkpt lat="45.65580109122833" lon="3.0493196345321216"><ele>716.0</ele><time>2026-04-19T15:38:01.999Z</time></trkpt><trkpt lat="45.65582903296224" lon="3.0494208474684097"><ele>716.0</ele><time>2026-04-19T15:38:04.999Z</time></trkpt><trkpt lat="45.65588034637992" lon="3.0495244449719547"><ele>715.5714285714287</ele><time>2026-04-19T15:38:26.999Z</time></trkpt><trkpt lat="45.65589355478477" lon="3.049631423975865"><ele>715.1428571428571</ele><time>2026-04-19T15:38:29.999Z</time></trkpt><trkpt lat="45.65588212636649" lon="3.049722659816563"><ele>714.7142857142858</ele><time>2026-04-19T15:38:32Z</time></trkpt><trkpt lat="45.655868181361775" lon="3.049816389552337"><ele>714.2857142857143</ele><time>2026-04-19T15:38:34Z</time></trkpt><trkpt lat="45.65585246793812" lon="3.049912379828494"><ele>713.8571428571429</ele><time>2026-04-19T15:38:36Z</time></trkpt><trkpt lat="45.65582708490186" lon="3.050014019083347"><ele>713.4285714285714</ele><time>2026-04-19T15:38:39Z</time></trkpt><trkpt lat="45.655773174082356" lon="3.0500940479285497"><ele>713.0</ele><time>2026-04-19T15:38:42Z</time></trkpt><trkpt lat="45.655717428986016" lon="3.050136782026035"><ele>713.0</ele><time>2026-04-19T15:38:45Z</time></trkpt><trkpt lat="45.65576848649269" lon="3.050075154612039"><ele>713.0</ele><time>2026-04-19T15:39:40.999Z</time></trkpt><trkpt lat="45.65578144834807" lon="3.049975722443788"><ele>713.0</ele><time>2026-04-19T15:41:17Z</time></trkpt><trkpt lat="45.65581026090026" lon="3.0498711265381164"><ele>713.0</ele><time>2026-04-19T15:41:20Z</time></trkpt><trkpt lat="45.65582695591743" lon="3.049781485577897"><ele>713.0</ele><time>2026-04-19T15:41:22Z</time></trkpt><trkpt lat="45.65585431842704" lon="3.049697307004424"><ele>713.0</ele><time>2026-04-19T15:41:23.999Z</time></trkpt><trkpt lat="45.65585793440893" lon="3.0496050584662804"><ele>713.0</ele><time>2026-04-19T15:41:25.999Z</time></trkpt><trkpt lat="45.65583938628949" lon="3.0494862377034986"><ele>713.0</ele><time>2026-04-19T15:41:28.999Z</time></trkpt><trkpt lat="45.65579261731671" lon="3.0493894120258584"><ele>713.0</ele><time>2026-04-19T15:41:31.999Z</time></trkpt><trkpt lat="45.655767582638234" lon="3.0492703243559665"><ele>713.0</ele><time>2026-04-19T15:41:34.999Z</time></trkpt><trkpt lat="45.655721745689284" lon="3.0491971086433183"><ele>713.0</ele><time>2026-04-19T15:41:37.999Z</time></trkpt><trkpt lat="45.655663156668766" lon="3.049124955726545"><ele>713.0</ele><time>2026-04-19T15:41:40.999Z</time></trkpt><trkpt lat="45.65561954744869" lon="3.04901519180425"><ele>713.0</ele><time>2026-04-19T15:41:43.999Z</time></trkpt><trkpt lat="45.65561506017442" lon="3.0488970961036266"><ele>713.5</ele><time>2026-04-19T15:41:46.999Z</time></trkpt><trkpt lat="45.655601639509314" lon="3.0487822971422087"><ele>714.0</ele><time>2026-04-19T15:41:49.999Z</time></trkpt><trkpt lat="45.65556757742037" lon="3.0486625935097114"><ele>714.5</ele><time>2026-04-19T15:41:52.999Z</time></trkpt><trkpt lat="45.65552254854191" lon="3.0485527845698313"><ele>715.0</ele><time>2026-04-19T15:41:55.999Z</time></trkpt><trkpt lat="45.65549480451843" lon="3.0484664995895927"><ele>715.5</ele><time>2026-04-19T15:41:57.999Z</time></trkpt><trkpt lat="45.65546212790902" lon="3.0483795128095355"><ele>716.0</ele><time>2026-04-19T15:41:59.999Z</time></trkpt><trkpt lat="45.65542941930886" lon="3.0482969115627827"><ele>715.8571428571429</ele><time>2026-04-19T15:42:01.999Z</time></trkpt><trkpt lat="45.65538478899124" lon="3.0481839686256897"><ele>715.7142857142858</ele><time>2026-04-19T15:42:04.999Z</time></trkpt><trkpt lat="45.65534335280621" lon="3.048111326469219"><ele>715.5714285714287</ele><time>2026-04-19T15:42:06.999Z</time></trkpt><trkpt lat="45.65528645434487" lon="3.048062232337591"><ele>715.4285714285714</ele><time>2026-04-19T15:42:08.999Z</time></trkpt><trkpt lat="45.6552059014094" lon="3.0480093915172333"><ele>715.2857142857142</ele><time>2026-04-19T15:42:11.999Z</time></trkpt><trkpt lat="45.655147671878105" lon="3.0479662717037526"><ele>715.1428571428572</ele><time>2026-04-19T15:42:13.999Z</time></trkpt><trkpt lat="45.65508802997795" lon="3.0479201468666868"><ele>715.0</ele><time>2026-04-19T15:42:15.999Z</time></trkpt><trkpt lat="45.65503276524255" lon="3.0478687252962264"><ele>715.6666666666667</ele><time>2026-04-19T15:42:17.999Z</time></trkpt><trkpt lat="45.6549746021692" lon="3.0478145429434536"><ele>716.3333333333334</ele><time>2026-04-19T15:42:20.999Z</time></trkpt><trkpt lat="45.65490715913895" lon="3.047737616580746"><ele>717.0</ele><time>2026-04-19T15:43:02Z</time></trkpt><trkpt lat="45.654839071070676" lon="3.047656539562409"><ele>717.6666666666666</ele><time>2026-04-19T15:43:05Z</time></trkpt><trkpt lat="45.654788931707294" lon="3.047590451385765"><ele>718.3333333333333</ele><time>2026-04-19T15:43:07Z</time></trkpt><trkpt lat="45.65473438165741" lon="3.0475190422943537"><ele>719.0</ele><time>2026-04-19T15:43:09Z</time></trkpt><trkpt lat="45.65468609594834" lon="3.04744819214093"><ele>719.2857142857142</ele><time>2026-04-19T15:43:11Z</time></trkpt><trkpt lat="45.65463639319983" lon="3.047384703449055"><ele>719.5714285714286</ele><time>2026-04-19T15:43:13Z</time></trkpt><trkpt lat="45.65458741549199" lon="3.0473123233845754"><ele>719.8571428571429</ele><time>2026-04-19T15:43:15Z</time></trkpt><trkpt lat="45.65453966135021" lon="3.047246907103886"><ele>720.1428571428571</ele><time>2026-04-19T15:43:17Z</time></trkpt><trkpt lat="45.65448941976273" lon="3.0471726917586426"><ele>720.4285714285714</ele><time>2026-04-19T15:43:19Z</time></trkpt><trkpt lat="45.654445528799435" lon="3.0471006003865853"><ele>720.7142857142857</ele><time>2026-04-19T15:43:21Z</time></trkpt><trkpt lat="45.654398207476824" lon="3.0470269521058464"><ele>721.0</ele><time>2026-04-19T15:43:23Z</time></trkpt><trkpt lat="45.654359919912245" lon="3.0469490638601857"><ele>721.8571428571429</ele><time>2026-04-19T15:43:25Z</time></trkpt><trkpt lat="45.654328955746585" lon="3.046868134320367"><ele>722.7142857142858</ele><time>2026-04-19T15:43:27Z</time></trkpt><trkpt lat="45.65429901815092" lon="3.046783221203562"><ele>723.5714285714286</ele><time>2026-04-19T15:43:28.999Z</time></trkpt><trkpt lat="45.65426507596402" lon="3.0466909318019355"><ele>724.4285714285714</ele><time>2026-04-19T15:43:30.999Z</time></trkpt><trkpt lat="45.65423197015543" lon="3.0466126043196415"><ele>725.2857142857143</ele><time>2026-04-19T15:43:32.999Z</time></trkpt><trkpt lat="45.654183922028146" lon="3.0465475798822768"><ele>726.1428571428571</ele><time>2026-04-19T15:43:34.999Z</time></trkpt><trkpt lat="45.65413758837313" lon="3.046475742026081"><ele>727.0</ele><time>2026-04-19T15:43:36.999Z</time></trkpt><trkpt lat="45.65409751514622" lon="3.0464044515036366"><ele>727.4285714285714</ele><time>2026-04-19T15:43:38.999Z</time></trkpt><trkpt lat="45.65406414701226" lon="3.046326766263279"><ele>727.8571428571429</ele><time>2026-04-19T15:43:40.999Z</time></trkpt><trkpt lat="45.65401273578909" lon="3.046257631159614"><ele>728.2857142857143</ele><time>2026-04-19T15:43:42.999Z</time></trkpt><trkpt lat="45.653965600673956" lon="3.0461846102304184"><ele>728.7142857142858</ele><time>2026-04-19T15:43:44.999Z</time></trkpt><trkpt lat="45.65394942788426" lon="3.046088514540703"><ele>729.1428571428571</ele><time>2026-04-19T15:43:46.999Z</time></trkpt><trkpt lat="45.65395375810372" lon="3.045986686692113"><ele>729.5714285714287</ele><time>2026-04-19T15:43:48.999Z</time></trkpt><trkpt lat="45.65395296626786" lon="3.0458810183398195"><ele>730.0</ele><time>2026-04-19T15:43:50.999Z</time></trkpt><trkpt lat="45.65394784404405" lon="3.0457802433087293"><ele>730.8571428571429</ele><time>2026-04-19T15:43:52.999Z</time></trkpt><trkpt lat="45.65394500482024" lon="3.0456817802303737"><ele>731.7142857142858</ele><time>2026-04-19T15:43:54.999Z</time></trkpt><trkpt lat="45.6539300074279" lon="3.0455885095664654"><ele>732.5714285714287</ele><time>2026-04-19T15:43:56.999Z</time></trkpt><trkpt lat="45.653877425771405" lon="3.045537039839244"><ele>733.4285714285714</ele><time>2026-04-19T15:43:58.999Z</time></trkpt><trkpt lat="45.65380168493454" lon="3.0455104530015658"><ele>734.2857142857142</ele><time>2026-04-19T15:44:01.999Z</time></trkpt><trkpt lat="45.653740051135685" lon="3.045444890658964"><ele>735.1428571428572</ele><time>2026-04-19T15:44:05.999Z</time></trkpt><trkpt lat="45.653665214644256" lon="3.0454114934952856"><ele>736.0</ele><time>2026-04-19T15:44:08.999Z</time></trkpt><trkpt lat="45.65358409496307" lon="3.045360031166061"><ele>736.0</ele><time>2026-04-19T15:44:11.999Z</time></trkpt><trkpt lat="45.653518699464406" lon="3.0452620634413066"><ele>736.0</ele><time>2026-04-19T15:44:14.999Z</time></trkpt><trkpt lat="45.65349554561977" lon="3.0451760272100294"><ele>736.0</ele><time>2026-04-19T15:44:16.999Z</time></trkpt><trkpt lat="45.653490077626145" lon="3.045084882873496"><ele>736.0</ele><time>2026-04-19T15:44:18.999Z</time></trkpt><trkpt lat="45.653485137307754" lon="3.0449947104914217"><ele>736.0</ele><time>2026-04-19T15:44:20.999Z</time></trkpt><trkpt lat="45.653479647436626" lon="3.0449023958161874"><ele>736.0</ele><time>2026-04-19T15:44:22.999Z</time></trkpt><trkpt lat="45.6534712044065" lon="3.044803383925262"><ele>736.0</ele><time>2026-04-19T15:44:24.999Z</time></trkpt><trkpt lat="45.65347235569877" lon="3.0447063963759238"><ele>736.2857142857143</ele><time>2026-04-19T15:44:26.999Z</time></trkpt><trkpt lat="45.65346615179221" lon="3.0446032576326587"><ele>736.5714285714286</ele><time>2026-04-19T15:44:28.999Z</time></trkpt><trkpt lat="45.65347394534641" lon="3.0445062166923025"><ele>736.8571428571429</ele><time>2026-04-19T15:44:30.999Z</time></trkpt><trkpt lat="45.653480708113335" lon="3.044399075636111"><ele>737.1428571428571</ele><time>2026-04-19T15:44:32.999Z</time></trkpt><trkpt lat="45.65348545510742" lon="3.0442943626325953"><ele>737.4285714285713</ele><time>2026-04-19T15:44:34.999Z</time></trkpt><trkpt lat="45.65348896226633" lon="3.0441970036997428"><ele>737.7142857142857</ele><time>2026-04-19T15:44:36.999Z</time></trkpt><trkpt lat="45.65348921975857" lon="3.0440922732036984"><ele>738.0</ele><time>2026-04-19T15:44:38.998Z</time></trkpt><trkpt lat="45.65348153883784" lon="3.0439854786085796"><ele>738.5714285714286</ele><time>2026-04-19T15:44:40.998Z</time></trkpt><trkpt lat="45.65345775570579" lon="3.0438878443318678"><ele>739.1428571428571</ele><time>2026-04-19T15:44:42.998Z</time></trkpt><trkpt lat="45.653418754244626" lon="3.0437982447539516"><ele>739.7142857142858</ele><time>2026-04-19T15:44:44.998Z</time></trkpt><trkpt lat="45.65338201300723" lon="3.043712702999355"><ele>740.2857142857142</ele><time>2026-04-19T15:44:46.998Z</time></trkpt><trkpt lat="45.6533481127423" lon="3.0436174908965197"><ele>740.8571428571429</ele><time>2026-04-19T15:44:49Z</time></trkpt><trkpt lat="45.653317210693025" lon="3.043518339444631"><ele>741.4285714285714</ele><time>2026-04-19T15:44:51Z</time></trkpt><trkpt lat="45.65328211201603" lon="3.04342584586006"><ele>742.0</ele><time>2026-04-19T15:44:53Z</time></trkpt><trkpt lat="45.653261095481106" lon="3.043327409273282"><ele>742.6666666666667</ele><time>2026-04-19T15:44:55Z</time></trkpt><trkpt lat="45.65322596104334" lon="3.0432393635114647"><ele>743.3333333333334</ele><time>2026-04-19T15:44:57Z</time></trkpt><trkpt lat="45.65318154841605" lon="3.0431453549283183"><ele>744.0</ele><time>2026-04-19T15:44:59Z</time></trkpt><trkpt lat="45.653119821266216" lon="3.043076113959996"><ele>744.6666666666666</ele><time>2026-04-19T15:45:01Z</time></trkpt><trkpt lat="45.653049305828034" lon="3.043006724153629"><ele>745.3333333333333</ele><time>2026-04-19T15:45:03Z</time></trkpt><trkpt lat="45.65297874540669" lon="3.042924305758887"><ele>746.0</ele><time>2026-04-19T15:45:05Z</time></trkpt><trkpt lat="45.652913649084184" lon="3.0428354689389754"><ele>746.0</ele><time>2026-04-19T15:45:07Z</time></trkpt><trkpt lat="45.65286330028424" lon="3.0427269456748696"><ele>746.0</ele><time>2026-04-19T15:45:09Z</time></trkpt><trkpt lat="45.65282308601163" lon="3.0426112615208987"><ele>746.0</ele><time>2026-04-19T15:45:11Z</time></trkpt><trkpt lat="45.65278480677303" lon="3.0424942665237893"><ele>746.0</ele><time>2026-04-19T15:45:13Z</time></trkpt><trkpt lat="45.65274902759013" lon="3.042372404363383"><ele>746.0</ele><time>2026-04-19T15:45:15Z</time></trkpt><trkpt lat="45.652711209827345" lon="3.0422448596935663"><ele>745.4</ele><time>2026-04-19T15:45:17Z</time></trkpt><trkpt lat="45.65267636111365" lon="3.0421096054585925"><ele>744.8</ele><time>2026-04-19T15:45:19Z</time></trkpt><trkpt lat="45.65263324381522" lon="3.041969331634408"><ele>744.1999999999999</ele><time>2026-04-19T15:45:21Z</time></trkpt><trkpt lat="45.65257261397156" lon="3.041837605587786"><ele>743.5999999999999</ele><time>2026-04-19T15:45:23Z</time></trkpt><trkpt lat="45.652496022944526" lon="3.0417318561734645"><ele>743.0</ele><time>2026-04-19T15:45:25Z</time></trkpt><trkpt lat="45.65245137250616" lon="3.0415868352498068"><ele>743.0</ele><time>2026-04-19T15:45:27Z</time></trkpt><trkpt lat="45.65237680503936" lon="3.0414901302943678"><ele>743.0</ele><time>2026-04-19T15:45:29Z</time></trkpt><trkpt lat="45.6523196882368" lon="3.041369005941758"><ele>743.0</ele><time>2026-04-19T15:45:31Z</time></trkpt><trkpt lat="45.65225113676167" lon="3.0412572258447748"><ele>743.0</ele><time>2026-04-19T15:45:32.999Z</time></trkpt><trkpt lat="45.65217928748069" lon="3.041150263220007"><ele>743.0</ele><time>2026-04-19T15:45:34.999Z</time></trkpt><trkpt lat="45.65208894891831" lon="3.041047402589468"><ele>743.0</ele><time>2026-04-19T15:45:36.999Z</time></trkpt><trkpt lat="45.65199194601602" lon="3.040979308187113"><ele>743.0</ele><time>2026-04-19T15:45:38.999Z</time></trkpt><trkpt lat="45.65191660814495" lon="3.0408970169082754"><ele>743.0</ele><time>2026-04-19T15:45:40.999Z</time></trkpt><trkpt lat="45.651836005767436" lon="3.0408288354941604"><ele>743.0</ele><time>2026-04-19T15:45:42.999Z</time></trkpt><trkpt lat="45.65174669524784" lon="3.0407557942933248"><ele>743.0</ele><time>2026-04-19T15:45:44.999Z</time></trkpt><trkpt lat="45.65164709011281" lon="3.0406774447643623"><ele>742.5</ele><time>2026-04-19T15:45:46.999Z</time></trkpt><trkpt lat="45.651530507622084" lon="3.0405872905169216"><ele>742.0</ele><time>2026-04-19T15:45:48.999Z</time></trkpt><trkpt lat="45.651467288273096" lon="3.0405304734523257"><ele>741.5</ele><time>2026-04-19T15:45:49.999Z</time></trkpt><trkpt lat="45.65140004479685" lon="3.040488266140464"><ele>741.0</ele><time>2026-04-19T15:45:50.999Z</time></trkpt><trkpt lat="45.65134043684871" lon="3.0404294370506073"><ele>740.5</ele><time>2026-04-19T15:45:51.999Z</time></trkpt><trkpt lat="45.651288298588405" lon="3.040370176390297"><ele>740.0</ele><time>2026-04-19T15:45:52.999Z</time></trkpt><trkpt lat="45.65124648781952" lon="3.040302053532465"><ele>740.0</ele><time>2026-04-19T15:45:53.999Z</time></trkpt><trkpt lat="45.651150639162914" lon="3.040210730910618"><ele>740.0</ele><time>2026-04-19T15:45:55.999Z</time></trkpt><trkpt lat="45.65108429829875" lon="3.040103806132815"><ele>740.0</ele><time>2026-04-19T15:45:57.999Z</time></trkpt><trkpt lat="45.65108641452755" lon="3.0399887149738887"><ele>740.0</ele><time>2026-04-19T15:45:59.999Z</time></trkpt><trkpt lat="45.65116463161294" lon="3.0399882184503437"><ele>740.0</ele><time>2026-04-19T15:46:01.999Z</time></trkpt><trkpt lat="45.65125420570302" lon="3.0399657315911472"><ele>739.8333333333333</ele><time>2026-04-19T15:46:03.999Z</time></trkpt><trkpt lat="45.65135253919568" lon="3.039912028174725"><ele>739.6666666666666</ele><time>2026-04-19T15:46:05.999Z</time></trkpt><trkpt lat="45.65146727927116" lon="3.0398734760847357"><ele>739.5</ele><time>2026-04-19T15:46:07.999Z</time></trkpt><trkpt lat="45.651518990256456" lon="3.039811897357191"><ele>739.3333333333334</ele><time>2026-04-19T15:46:08.999Z</time></trkpt><trkpt lat="45.65157793594013" lon="3.039767037492717"><ele>739.1666666666667</ele><time>2026-04-19T15:46:09.999Z</time></trkpt><trkpt lat="45.65164120575832" lon="3.0397131736787637"><ele>739.0</ele><time>2026-04-19T15:46:10.999Z</time></trkpt><trkpt lat="45.65170082234028" lon="3.0396534430060242"><ele>739.0</ele><time>2026-04-19T15:46:11.999Z</time></trkpt><trkpt lat="45.65176493484078" lon="3.0395897026217416"><ele>739.0</ele><time>2026-04-19T15:46:12.999Z</time></trkpt><trkpt lat="45.65183148405944" lon="3.039530605812532"><ele>739.0</ele><time>2026-04-19T15:46:13.999Z</time></trkpt><trkpt lat="45.65189864015139" lon="3.039467753784155"><ele>739.0</ele><time>2026-04-19T15:46:14.999Z</time></trkpt><trkpt lat="45.65196816459288" lon="3.0394057369029435"><ele>739.0</ele><time>2026-04-19T15:46:15.999Z</time></trkpt><trkpt lat="45.65203423496213" lon="3.0393420098012496"><ele>739.0</ele><time>2026-04-19T15:46:16.999Z</time></trkpt><trkpt lat="45.652102189576915" lon="3.039281960331143"><ele>738.5</ele><time>2026-04-19T15:46:17.999Z</time></trkpt><trkpt lat="45.6521783075231" lon="3.0392400307292884"><ele>738.0</ele><time>2026-04-19T15:46:18.999Z</time></trkpt><trkpt lat="45.65224160248806" lon="3.039162418220329"><ele>737.5</ele><time>2026-04-19T15:46:19.999Z</time></trkpt><trkpt lat="45.65231492177653" lon="3.0391123953290884"><ele>737.0</ele><time>2026-04-19T15:46:20.999Z</time></trkpt><trkpt lat="45.652393799856185" lon="3.0390788099637454"><ele>736.5</ele><time>2026-04-19T15:46:21.999Z</time></trkpt><trkpt lat="45.652475400273985" lon="3.0390534966314875"><ele>736.0</ele><time>2026-04-19T15:46:22.999Z</time></trkpt><trkpt lat="45.652549831250376" lon="3.0390361831165698"><ele>736.0</ele><time>2026-04-19T15:46:23.999Z</time></trkpt><trkpt lat="45.652623252022565" lon="3.039021803674939"><ele>736.0</ele><time>2026-04-19T15:46:24.999Z</time></trkpt><trkpt lat="45.65269771274436" lon="3.03900967872281"><ele>736.0</ele><time>2026-04-19T15:46:25.999Z</time></trkpt><trkpt lat="45.652775002890664" lon="3.0390005144801795"><ele>736.0</ele><time>2026-04-19T15:46:26.999Z</time></trkpt><trkpt lat="45.65285509232391" lon="3.038991541120213"><ele>736.0</ele><time>2026-04-19T15:46:27.999Z</time></trkpt><trkpt lat="45.652934181497706" lon="3.0389786510418175"><ele>736.0</ele><time>2026-04-19T15:46:28.999Z</time></trkpt><trkpt lat="45.653011039565286" lon="3.0389606288672275"><ele>734.5</ele><time>2026-04-19T15:46:29.999Z</time></trkpt><trkpt lat="45.65308719426347" lon="3.0389402921065307"><ele>733.0</ele><time>2026-04-19T15:46:30.999Z</time></trkpt><trkpt lat="45.65316135710229" lon="3.0389007340078775"><ele>731.5</ele><time>2026-04-19T15:46:31.999Z</time></trkpt><trkpt lat="45.653234713928896" lon="3.038855888613713"><ele>730.0</ele><time>2026-04-19T15:46:32.999Z</time></trkpt><trkpt lat="45.653313186798066" lon="3.038813374331529"><ele>728.5</ele><time>2026-04-19T15:46:33.999Z</time></trkpt><trkpt lat="45.65338173733254" lon="3.0387433475606103"><ele>727.0</ele><time>2026-04-19T15:46:34.999Z</time></trkpt><trkpt lat="45.65345415599227" lon="3.038669033769849"><ele>727.0</ele><time>2026-04-19T15:46:35.999Z</time></trkpt><trkpt lat="45.653527996840346" lon="3.0385932605813357"><ele>727.0</ele><time>2026-04-19T15:46:36.999Z</time></trkpt><trkpt lat="45.653602861960984" lon="3.0385155792588145"><ele>727.0</ele><time>2026-04-19T15:46:37.999Z</time></trkpt><trkpt lat="45.653668326998975" lon="3.0384206955952466"><ele>727.0</ele><time>2026-04-19T15:46:38.999Z</time></trkpt><trkpt lat="45.65374422462361" lon="3.038351410177504"><ele>727.0</ele><time>2026-04-19T15:46:39.999Z</time></trkpt><trkpt lat="45.65381716410659" lon="3.038268525463796"><ele>723.2</ele><time>2026-04-19T15:46:40.999Z</time></trkpt><trkpt lat="45.65388151934167" lon="3.0381681612270457"><ele>719.4000000000001</ele><time>2026-04-19T15:46:41.999Z</time></trkpt><trkpt lat="45.65393816006054" lon="3.03805632205529"><ele>715.5999999999999</ele><time>2026-04-19T15:46:42.999Z</time></trkpt><trkpt lat="45.65397097917885" lon="3.037921002649261"><ele>711.8</ele><time>2026-04-19T15:46:43.998Z</time></trkpt><trkpt lat="45.65396758806651" lon="3.0377712464107676"><ele>708.0</ele><time>2026-04-19T15:46:44.998Z</time></trkpt><trkpt lat="45.65392074373029" lon="3.0376245302305644"><ele>708.0</ele><time>2026-04-19T15:46:45.998Z</time></trkpt><trkpt lat="45.653848159201175" lon="3.0375023243227033"><ele>708.0</ele><time>2026-04-19T15:46:46.998Z</time></trkpt><trkpt lat="45.65377219181152" lon="3.0373932805194555"><ele>708.0</ele><time>2026-04-19T15:46:47.998Z</time></trkpt><trkpt lat="45.653697715620716" lon="3.037285320931193"><ele>708.0</ele><time>2026-04-19T15:46:48.998Z</time></trkpt><trkpt lat="45.653623758728045" lon="3.037171864268976"><ele>708.0</ele><time>2026-04-19T15:46:49.998Z</time></trkpt><trkpt lat="45.653545944008314" lon="3.0370615338533504"><ele>706.75</ele><time>2026-04-19T15:46:50.998Z</time></trkpt><trkpt lat="45.653468966781" lon="3.036947724324571"><ele>705.5</ele><time>2026-04-19T15:46:51.998Z</time></trkpt><trkpt lat="45.653402258450065" lon="3.0368124308217572"><ele>704.25</ele><time>2026-04-19T15:46:52.998Z</time></trkpt><trkpt lat="45.653322858095564" lon="3.0366942276270303"><ele>703.0</ele><time>2026-04-19T15:46:53.998Z</time></trkpt><trkpt lat="45.653230146320006" lon="3.0365889645811124"><ele>703.0</ele><time>2026-04-19T15:46:55Z</time></trkpt><trkpt lat="45.653163346610704" lon="3.036447050016906"><ele>703.0</ele><time>2026-04-19T15:46:56Z</time></trkpt><trkpt lat="45.65309523936063" lon="3.0363229314707536"><ele>703.0</ele><time>2026-04-19T15:46:57Z</time></trkpt><trkpt lat="45.653041101267796" lon="3.036199442226402"><ele>703.0</ele><time>2026-04-19T15:46:58Z</time></trkpt><trkpt lat="45.652997828148784" lon="3.0360701644299164"><ele>703.0</ele><time>2026-04-19T15:46:59Z</time></trkpt><trkpt lat="45.65297994861417" lon="3.035926324346536"><ele>704.5999999999999</ele><time>2026-04-19T15:47:00Z</time></trkpt><trkpt lat="45.65301187723375" lon="3.0357879664058833"><ele>706.1999999999999</ele><time>2026-04-19T15:47:01Z</time></trkpt><trkpt lat="45.65306619671283" lon="3.035653418324566"><ele>707.8</ele><time>2026-04-19T15:47:02Z</time></trkpt><trkpt lat="45.653161168393886" lon="3.035577358889492"><ele>709.4</ele><time>2026-04-19T15:47:03Z</time></trkpt><trkpt lat="45.653268806522405" lon="3.0355506703356268"><ele>711.0</ele><time>2026-04-19T15:47:04Z</time></trkpt><trkpt lat="45.65337803029182" lon="3.0355316157141914"><ele>711.0</ele><time>2026-04-19T15:47:05Z</time></trkpt><trkpt lat="45.65348469348181" lon="3.035539078803151"><ele>711.0</ele><time>2026-04-19T15:47:06Z</time></trkpt><trkpt lat="45.6535898430329" lon="3.0355480897787026"><ele>711.0</ele><time>2026-04-19T15:47:07Z</time></trkpt><trkpt lat="45.65369531842903" lon="3.035548672089682"><ele>711.0</ele><time>2026-04-19T15:47:08Z</time></trkpt><trkpt lat="45.65380071538672" lon="3.035559830534473"><ele>711.0</ele><time>2026-04-19T15:47:09Z</time></trkpt><trkpt lat="45.653906735453376" lon="3.035586611403615"><ele>711.0</ele><time>2026-04-19T15:47:10Z</time></trkpt><trkpt lat="45.65400635311056" lon="3.035641461553321"><ele>711.0</ele><time>2026-04-19T15:47:11Z</time></trkpt><trkpt lat="45.654092960547075" lon="3.0357298684668623"><ele>711.0</ele><time>2026-04-19T15:47:12Z</time></trkpt><trkpt lat="45.654171475821464" lon="3.035826764745086"><ele>711.0</ele><time>2026-04-19T15:47:13Z</time></trkpt><trkpt lat="45.65424396418646" lon="3.0359233385227937"><ele>711.0</ele><time>2026-04-19T15:47:14Z</time></trkpt><trkpt lat="45.654315149163914" lon="3.0360154305068163"><ele>709.0</ele><time>2026-04-19T15:47:15Z</time></trkpt><trkpt lat="45.65438706986467" lon="3.036099931841207"><ele>707.0</ele><time>2026-04-19T15:47:16Z</time></trkpt><trkpt lat="45.65445566260062" lon="3.0361816939693202"><ele>705.0</ele><time>2026-04-19T15:47:17Z</time></trkpt><trkpt lat="45.654524776256764" lon="3.03626333453623"><ele>703.0</ele><time>2026-04-19T15:47:18Z</time></trkpt><trkpt lat="45.65459645836612" lon="3.0363329952657194"><ele>701.0</ele><time>2026-04-19T15:47:19Z</time></trkpt><trkpt lat="45.65466970643848" lon="3.0363916088779543"><ele>699.0</ele><time>2026-04-19T15:47:20Z</time></trkpt><trkpt lat="45.65474170699008" lon="3.036449030185677"><ele>699.0</ele><time>2026-04-19T15:47:21Z</time></trkpt><trkpt lat="45.65481537484727" lon="3.0364966989529396"><ele>699.0</ele><time>2026-04-19T15:47:22Z</time></trkpt><trkpt lat="45.65489266778982" lon="3.036535332941213"><ele>699.0</ele><time>2026-04-19T15:47:23Z</time></trkpt><trkpt lat="45.654967635934035" lon="3.0365756969757323"><ele>699.0</ele><time>2026-04-19T15:47:24Z</time></trkpt><trkpt lat="45.65504192643397" lon="3.0366235187002775"><ele>699.0</ele><time>2026-04-19T15:47:25Z</time></trkpt><trkpt lat="45.655117956957575" lon="3.0366706386162017"><ele>699.0</ele><time>2026-04-19T15:47:26Z</time></trkpt><trkpt lat="45.655191452599176" lon="3.036720550323442"><ele>699.1666666666666</ele><time>2026-04-19T15:47:27Z</time></trkpt><trkpt lat="45.655264414152434" lon="3.0367828298683945"><ele>699.3333333333334</ele><time>2026-04-19T15:47:28Z</time></trkpt><trkpt lat="45.655328874701055" lon="3.0368675432490604"><ele>699.5</ele><time>2026-04-19T15:47:29Z</time></trkpt><trkpt lat="45.65538543076084" lon="3.036957494688127"><ele>699.6666666666667</ele><time>2026-04-19T15:47:30Z</time></trkpt><trkpt lat="45.655436586400405" lon="3.0370550292396064"><ele>699.8333333333334</ele><time>2026-04-19T15:47:31Z</time></trkpt><trkpt lat="45.65548629671898" lon="3.0371534951185795"><ele>700.0</ele><time>2026-04-19T15:47:32Z</time></trkpt><trkpt lat="45.655530822355146" lon="3.0372544216110096"><ele>699.8333333333334</ele><time>2026-04-19T15:47:32.999Z</time></trkpt><trkpt lat="45.655573606096844" lon="3.037357142551038"><ele>699.6666666666667</ele><time>2026-04-19T15:47:33.999Z</time></trkpt><trkpt lat="45.65561726109389" lon="3.0374596751240297"><ele>699.5</ele><time>2026-04-19T15:47:34.999Z</time></trkpt><trkpt lat="45.65566084487752" lon="3.0375581138946606"><ele>699.3333333333334</ele><time>2026-04-19T15:47:35.999Z</time></trkpt><trkpt lat="45.655706952803456" lon="3.0376490204405493"><ele>699.1666666666666</ele><time>2026-04-19T15:47:36.999Z</time></trkpt><trkpt lat="45.655755104860056" lon="3.037739047755942"><ele>699.0</ele><time>2026-04-19T15:47:37.999Z</time></trkpt><trkpt lat="45.6558077070039" lon="3.037817270284748"><ele>699.0</ele><time>2026-04-19T15:47:38.999Z</time></trkpt><trkpt lat="45.65586496868202" lon="3.0378877281090735"><ele>699.0</ele><time>2026-04-19T15:47:39.999Z</time></trkpt><trkpt lat="45.6559287251534" lon="3.0379438582190823"><ele>699.0</ele><time>2026-04-19T15:47:40.999Z</time></trkpt><trkpt lat="45.65599835134755" lon="3.0379886557555245"><ele>699.0</ele><time>2026-04-19T15:47:41.999Z</time></trkpt><trkpt lat="45.65606727465786" lon="3.0380278231436244"><ele>699.0</ele><time>2026-04-19T15:47:42.999Z</time></trkpt><trkpt lat="45.656129491844354" lon="3.0380792947086395"><ele>699.0</ele><time>2026-04-19T15:47:43.999Z</time></trkpt><trkpt lat="45.65619458580161" lon="3.0381232457875265"><ele>699.0</ele><time>2026-04-19T15:47:44.999Z</time></trkpt><trkpt lat="45.65625909966786" lon="3.038169320973795"><ele>698.4285714285714</ele><time>2026-04-19T15:47:45.999Z</time></trkpt><trkpt lat="45.656321005094206" lon="3.0382170544453087"><ele>697.8571428571429</ele><time>2026-04-19T15:47:46.999Z</time></trkpt><trkpt lat="45.65638504334931" lon="3.038262486186435"><ele>697.2857142857143</ele><time>2026-04-19T15:47:47.999Z</time></trkpt><trkpt lat="45.65644866052955" lon="3.0383054726234295"><ele>696.7142857142858</ele><time>2026-04-19T15:47:48.999Z</time></trkpt><trkpt lat="45.65651040527819" lon="3.0383484664360223"><ele>696.1428571428571</ele><time>2026-04-19T15:47:49.999Z</time></trkpt><trkpt lat="45.656572005286066" lon="3.038385552950374"><ele>695.5714285714287</ele><time>2026-04-19T15:47:50.999Z</time></trkpt><trkpt lat="45.65663274289954" lon="3.038423814520232"><ele>695.0</ele><time>2026-04-19T15:47:51.999Z</time></trkpt><trkpt lat="45.65675244257543" lon="3.0384928700386347"><ele>695.0</ele><time>2026-04-19T15:47:53.999Z</time></trkpt><trkpt lat="45.65687218645812" lon="3.0385435136844663"><ele>695.0</ele><time>2026-04-19T15:47:55.999Z</time></trkpt><trkpt lat="45.65693632807662" lon="3.0385395294107003"><ele>695.0</ele><time>2026-04-19T15:47:56.999Z</time></trkpt><trkpt lat="45.65699917087144" lon="3.0385165009210136"><ele>695.0</ele><time>2026-04-19T15:47:57.999Z</time></trkpt><trkpt lat="45.65705935612572" lon="3.0384792423129543"><ele>695.0</ele><time>2026-04-19T15:47:58.999Z</time></trkpt><trkpt lat="45.657162087001375" lon="3.0383738385408092"><ele>695.0</ele><time>2026-04-19T15:48:00.999Z</time></trkpt><trkpt lat="45.657206829003464" lon="3.0383045431236035"><ele>694.4285714285714</ele><time>2026-04-19T15:48:01.999Z</time></trkpt><trkpt lat="45.65724733793961" lon="3.0382287978169007"><ele>693.8571428571429</ele><time>2026-04-19T15:48:02.999Z</time></trkpt><trkpt lat="45.65729120433956" lon="3.038158998638799"><ele>693.2857142857142</ele><time>2026-04-19T15:48:03.999Z</time></trkpt><trkpt lat="45.65733667315828" lon="3.038087186838464"><ele>692.7142857142858</ele><time>2026-04-19T15:48:04.999Z</time></trkpt><trkpt lat="45.65738530199246" lon="3.0380177142371516"><ele>692.1428571428571</ele><time>2026-04-19T15:48:05.999Z</time></trkpt><trkpt lat="45.65743966111274" lon="3.037958984828364"><ele>691.5714285714286</ele><time>2026-04-19T15:48:06.999Z</time></trkpt><trkpt lat="45.65749643968305" lon="3.0379059016665297"><ele>691.0</ele><time>2026-04-19T15:48:07.999Z</time></trkpt><trkpt lat="45.65756215433271" lon="3.0378630055586413"><ele>690.9999999999999</ele><time>2026-04-19T15:48:08.999Z</time></trkpt><trkpt lat="45.657629338475765" lon="3.037843103546205"><ele>691.0</ele><time>2026-04-19T15:48:09.999Z</time></trkpt><trkpt lat="45.65769717480578" lon="3.0378306271068056"><ele>691.0</ele><time>2026-04-19T15:48:10.999Z</time></trkpt><trkpt lat="45.65776428628175" lon="3.0378341084224494"><ele>691.0</ele><time>2026-04-19T15:48:11.999Z</time></trkpt><trkpt lat="45.65783162250918" lon="3.03785256904722"><ele>691.0</ele><time>2026-04-19T15:48:12.999Z</time></trkpt><trkpt lat="45.657893557386316" lon="3.0378774214630426"><ele>690.9999999999999</ele><time>2026-04-19T15:48:13.999Z</time></trkpt><trkpt lat="45.6579544489325" lon="3.0379115245642265"><ele>691.0</ele><time>2026-04-19T15:48:14.999Z</time></trkpt><trkpt lat="45.6580160090177" lon="3.037947918834932"><ele>690.6666666666667</ele><time>2026-04-19T15:48:15.999Z</time></trkpt><trkpt lat="45.65812763218845" lon="3.038032411777188"><ele>690.3333333333334</ele><time>2026-04-19T15:48:17.999Z</time></trkpt><trkpt lat="45.65818464460112" lon="3.0380739966914065"><ele>690.0</ele><time>2026-04-19T15:48:18.999Z</time></trkpt><trkpt lat="45.65829769109856" lon="3.0381526239033603"><ele>689.6666666666666</ele><time>2026-04-19T15:48:20.999Z</time></trkpt><trkpt lat="45.658358074788" lon="3.038181624105796"><ele>689.3333333333333</ele><time>2026-04-19T15:48:21.999Z</time></trkpt><trkpt lat="45.65842016812748" lon="3.038208383837119"><ele>689.0</ele><time>2026-04-19T15:48:22.999Z</time></trkpt><trkpt lat="45.65848297386038" lon="3.0382376909003677"><ele>689.0</ele><time>2026-04-19T15:48:23.999Z</time></trkpt><trkpt lat="45.658543636901854" lon="3.0382737898099954"><ele>689.0</ele><time>2026-04-19T15:48:24.999Z</time></trkpt><trkpt lat="45.65860193531901" lon="3.0383176459809422"><ele>689.0</ele><time>2026-04-19T15:48:25.999Z</time></trkpt><trkpt lat="45.6586605128029" lon="3.038365502136871"><ele>689.0</ele><time>2026-04-19T15:48:26.999Z</time></trkpt><trkpt lat="45.65871620971826" lon="3.0384222335770277"><ele>689.0</ele><time>2026-04-19T15:48:27.999Z</time></trkpt><trkpt lat="45.6587658252873" lon="3.038490415330694"><ele>689.0</ele><time>2026-04-19T15:48:28.999Z</time></trkpt><trkpt lat="45.65880630607973" lon="3.038569171877955"><ele>689.0</ele><time>2026-04-19T15:48:29.999Z</time></trkpt><trkpt lat="45.65885235871829" lon="3.038644765884058"><ele>688.8571428571429</ele><time>2026-04-19T15:48:30.999Z</time></trkpt><trkpt lat="45.65889611695111" lon="3.03871914055644"><ele>688.7142857142858</ele><time>2026-04-19T15:48:31.999Z</time></trkpt><trkpt lat="45.65894077511201" lon="3.038790719018888"><ele>688.5714285714287</ele><time>2026-04-19T15:48:32.999Z</time></trkpt><trkpt lat="45.65899384188619" lon="3.0388497387142794"><ele>688.4285714285714</ele><time>2026-04-19T15:48:33.999Z</time></trkpt><trkpt lat="45.659050551455834" lon="3.0389084291727446"><ele>688.2857142857143</ele><time>2026-04-19T15:48:34.999Z</time></trkpt><trkpt lat="45.65911102829509" lon="3.038957152776768"><ele>688.1428571428572</ele><time>2026-04-19T15:48:35.999Z</time></trkpt><trkpt lat="45.65917218403975" lon="3.039002346969312"><ele>688.0</ele><time>2026-04-19T15:48:36.999Z</time></trkpt><trkpt lat="45.659235106428724" lon="3.039036990554338"><ele>688.0000000000001</ele><time>2026-04-19T15:48:37.999Z</time></trkpt><trkpt lat="45.65929807530733" lon="3.039074584028259"><ele>688.0</ele><time>2026-04-19T15:48:38.999Z</time></trkpt><trkpt lat="45.65936294362772" lon="3.039113471037714"><ele>688.0</ele><time>2026-04-19T15:48:39.999Z</time></trkpt><trkpt lat="45.65942809984142" lon="3.039147108856711"><ele>688.0</ele><time>2026-04-19T15:48:40.999Z</time></trkpt><trkpt lat="45.65949413720641" lon="3.039174150638135"><ele>688.0</ele><time>2026-04-19T15:48:41.999Z</time></trkpt><trkpt lat="45.65956273719836" lon="3.039185402183173"><ele>688.0000000000001</ele><time>2026-04-19T15:48:42.999Z</time></trkpt><trkpt lat="45.65963121621802" lon="3.039205099589252"><ele>688.0</ele><time>2026-04-19T15:48:43.998Z</time></trkpt><trkpt lat="45.65970035953312" lon="3.0391948745346267"><ele>687.4285714285714</ele><time>2026-04-19T15:48:44.998Z</time></trkpt><trkpt lat="45.65976929766563" lon="3.039168546740581"><ele>686.8571428571429</ele><time>2026-04-19T15:48:45.998Z</time></trkpt><trkpt lat="45.65983380740559" lon="3.039133703398197"><ele>686.2857142857142</ele><time>2026-04-19T15:48:46.998Z</time></trkpt><trkpt lat="45.65988804731721" lon="3.039074922005601"><ele>685.7142857142858</ele><time>2026-04-19T15:48:47.998Z</time></trkpt><trkpt lat="45.659951011971536" lon="3.039044314291056"><ele>685.1428571428571</ele><time>2026-04-19T15:48:48.998Z</time></trkpt><trkpt lat="45.660012191102894" lon="3.0390044782548213"><ele>684.5714285714286</ele><time>2026-04-19T15:48:49.998Z</time></trkpt><trkpt lat="45.66007276199321" lon="3.038965450824432"><ele>684.0</ele><time>2026-04-19T15:48:50.998Z</time></trkpt><trkpt lat="45.660195486770405" lon="3.0388921163477174"><ele>684.0</ele><time>2026-04-19T15:48:52.998Z</time></trkpt><trkpt lat="45.66025612562706" lon="3.038855988711823"><ele>684.0</ele><time>2026-04-19T15:48:53.998Z</time></trkpt><trkpt lat="45.66031670359378" lon="3.038821081584721"><ele>684.0</ele><time>2026-04-19T15:48:54.998Z</time></trkpt><trkpt lat="45.66038019788765" lon="3.0387906883329032"><ele>684.0</ele><time>2026-04-19T15:48:55.998Z</time></trkpt><trkpt lat="45.66044287775663" lon="3.0387615565669828"><ele>684.0</ele><time>2026-04-19T15:48:56.998Z</time></trkpt><trkpt lat="45.66050653492451" lon="3.0387526825125817"><ele>684.0</ele><time>2026-04-19T15:48:57.998Z</time></trkpt><trkpt lat="45.66062874351788" lon="3.0387359918107633"><ele>683.0</ele><time>2026-04-19T15:48:59.998Z</time></trkpt><trkpt lat="45.66074188108255" lon="3.03874550853731"><ele>682.0</ele><time>2026-04-19T15:49:02Z</time></trkpt><trkpt lat="45.660841794067125" lon="3.0387519571727184"><ele>681.0</ele><time>2026-04-19T15:49:04Z</time></trkpt><trkpt lat="45.66092854423224" lon="3.0387658455834416"><ele>680.0</ele><time>2026-04-19T15:49:06Z</time></trkpt><trkpt lat="45.661018929888954" lon="3.038798847400896"><ele>679.0</ele><time>2026-04-19T15:49:09Z</time></trkpt><trkpt lat="45.661100663513764" lon="3.03883783680299"><ele>680.0</ele><time>2026-04-19T15:49:12Z</time></trkpt><trkpt lat="45.66115000137623" lon="3.0386773058306775"><ele>681.0</ele><time>2026-04-19T15:49:13Z</time></trkpt><trkpt lat="45.66116681550479" lon="3.038542399887645"><ele>682.0</ele><time>2026-04-19T15:49:15Z</time></trkpt><trkpt lat="45.661181612406644" lon="3.038419007757474"><ele>683.0</ele><time>2026-04-19T15:49:17Z</time></trkpt><trkpt lat="45.66120213865073" lon="3.038293065111086"><ele>684.0</ele><time>2026-04-19T15:49:19Z</time></trkpt><trkpt lat="45.66121712140287" lon="3.0381653035229585"><ele>685.8333333333334</ele><time>2026-04-19T15:49:21Z</time></trkpt><trkpt lat="45.66122771185644" lon="3.0380361743201583"><ele>687.6666666666666</ele><time>2026-04-19T15:49:23Z</time></trkpt><trkpt lat="45.661235283555044" lon="3.0379093430731516"><ele>689.5</ele><time>2026-04-19T15:49:25Z</time></trkpt><trkpt lat="45.661244592202465" lon="3.037789757460709"><ele>691.3333333333333</ele><time>2026-04-19T15:49:27Z</time></trkpt><trkpt lat="45.661239537563155" lon="3.037667254321561"><ele>693.1666666666666</ele><time>2026-04-19T15:49:28.999Z</time></trkpt><trkpt lat="45.66124540195762" lon="3.037548839183949"><ele>695.0</ele><time>2026-04-19T15:49:30.999Z</time></trkpt><trkpt lat="45.66127468538223" lon="3.0374536600454882"><ele>695.0</ele><time>2026-04-19T15:49:32.999Z</time></trkpt><trkpt lat="45.66127460856185" lon="3.037322240349795"><ele>695.0</ele><time>2026-04-19T15:49:35.999Z</time></trkpt><trkpt lat="45.66134641103631" lon="3.0373213007003597"><ele>695.0</ele><time>2026-04-19T15:49:39.999Z</time></trkpt><trkpt lat="45.66136766328462" lon="3.037436135640423"><ele>695.0</ele><time>2026-04-19T15:49:59.999Z</time></trkpt><trkpt lat="45.66141660794686" lon="3.0374987863160516"><ele>695.0</ele><time>2026-04-19T15:50:03.999Z</time></trkpt><trkpt lat="45.661465335963186" lon="3.0375664273451477"><ele>695.0</ele><time>2026-04-19T15:50:06.999Z</time></trkpt><trkpt lat="45.66151649492398" lon="3.037643369108801"><ele>695.0</ele><time>2026-04-19T15:50:09.999Z</time></trkpt><trkpt lat="45.66156531023122" lon="3.0377307150036903"><ele>695.0</ele><time>2026-04-19T15:50:12.999Z</time></trkpt><trkpt lat="45.661613588229216" lon="3.037839969352674"><ele>695.0</ele><time>2026-04-19T15:50:15.999Z</time></trkpt><trkpt lat="45.66164896011858" lon="3.0379180784047257"><ele>695.0</ele><time>2026-04-19T15:50:17.999Z</time></trkpt><trkpt lat="45.661686195464156" lon="3.0379991582920622"><ele>695.0</ele><time>2026-04-19T15:50:19.999Z</time></trkpt><trkpt lat="45.66173809992437" lon="3.0380752606548738"><ele>695.0</ele><time>2026-04-19T15:50:21.999Z</time></trkpt><trkpt lat="45.66178550886538" lon="3.0381677607010538"><ele>695.0</ele><time>2026-04-19T15:50:23.999Z</time></trkpt><trkpt lat="45.6618549056126" lon="3.038238110344692"><ele>695.0</ele><time>2026-04-19T15:50:25.999Z</time></trkpt><trkpt lat="45.66191184052996" lon="3.0383298596757906"><ele>695.0</ele><time>2026-04-19T15:50:27.999Z</time></trkpt><trkpt lat="45.66195465174545" lon="3.0384167581580095"><ele>695.0</ele><time>2026-04-19T15:50:29.999Z</time></trkpt><trkpt lat="45.661997205603456" lon="3.0385031362975754"><ele>695.0</ele><time>2026-04-19T15:50:31.999Z</time></trkpt><trkpt lat="45.662025673527495" lon="3.038601115154402"><ele>695.0</ele><time>2026-04-19T15:50:33.999Z</time></trkpt><trkpt lat="45.66208203377965" lon="3.0386753251528704"><ele>695.2</ele><time>2026-04-19T15:50:35.999Z</time></trkpt><trkpt lat="45.662085746019116" lon="3.0388092505145967"><ele>695.4</ele><time>2026-04-19T15:50:37.999Z</time></trkpt><trkpt lat="45.66211837162598" lon="3.0389349897191034"><ele>695.5999999999999</ele><time>2026-04-19T15:50:39.998Z</time></trkpt><trkpt lat="45.662183415383005" lon="3.039055638299479"><ele>695.8</ele><time>2026-04-19T15:50:41.998Z</time></trkpt><trkpt lat="45.66225378702897" lon="3.03912540193389"><ele>696.0</ele><time>2026-04-19T15:50:43.998Z</time></trkpt><trkpt lat="45.6623084961057" lon="3.039189751383194"><ele>695.2857142857142</ele><time>2026-04-19T15:50:45.998Z</time></trkpt><trkpt lat="45.662360779795996" lon="3.0392512068355333"><ele>694.5714285714286</ele><time>2026-04-19T15:50:47.998Z</time></trkpt><trkpt lat="45.662390442750755" lon="3.0393487808309616"><ele>693.8571428571429</ele><time>2026-04-19T15:50:49.998Z</time></trkpt><trkpt lat="45.66242982178859" lon="3.0394377225030524"><ele>693.1428571428571</ele><time>2026-04-19T15:50:51.998Z</time></trkpt><trkpt lat="45.662473442650445" lon="3.0395125574102084"><ele>692.4285714285714</ele><time>2026-04-19T15:50:53.998Z</time></trkpt><trkpt lat="45.662552803955435" lon="3.039529199723343"><ele>691.7142857142857</ele><time>2026-04-19T15:50:56.998Z</time></trkpt><trkpt lat="45.662626938595196" lon="3.0395607266278764"><ele>691.0</ele><time>2026-04-19T15:50:59.998Z</time></trkpt><trkpt lat="45.662690283812836" lon="3.0395976107481464"><ele>690.9999999999999</ele><time>2026-04-19T15:51:03.998Z</time></trkpt><trkpt lat="45.66276330712646" lon="3.0395990492683955"><ele>691.0</ele><time>2026-04-19T15:51:07.999Z</time></trkpt><trkpt lat="45.662837690334605" lon="3.0395942933535838"><ele>691.0</ele><time>2026-04-19T15:51:12Z</time></trkpt><trkpt lat="45.66291409303565" lon="3.0396004526772034"><ele>691.0</ele><time>2026-04-19T15:51:16Z</time></trkpt><trkpt lat="45.66297718122738" lon="3.0396090240579876"><ele>691.0</ele><time>2026-04-19T15:51:20Z</time></trkpt><trkpt lat="45.66305146774361" lon="3.039634879153071"><ele>690.9999999999999</ele><time>2026-04-19T15:51:24Z</time></trkpt><trkpt lat="45.66310323418665" lon="3.0396957826609765"><ele>691.0</ele><time>2026-04-19T15:51:27Z</time></trkpt><trkpt lat="45.663154079666235" lon="3.039758429772741"><ele>693.0</ele><time>2026-04-19T15:51:30Z</time></trkpt><trkpt lat="45.663213268581806" lon="3.0398533948425692"><ele>695.0</ele><time>2026-04-19T15:51:33Z</time></trkpt><trkpt lat="45.66324318760675" lon="3.0399739119295885"><ele>697.0</ele><time>2026-04-19T15:51:35.999Z</time></trkpt><trkpt lat="45.66329801211375" lon="3.0400651633781854"><ele>699.0</ele><time>2026-04-19T15:51:38.999Z</time></trkpt><trkpt lat="45.66336986819454" lon="3.040130173953874"><ele>701.0</ele><time>2026-04-19T15:51:41.999Z</time></trkpt><trkpt lat="45.66344194915706" lon="3.0401929625918895"><ele>703.0</ele><time>2026-04-19T15:51:44.999Z</time></trkpt><trkpt lat="45.66350905396281" lon="3.040262302710027"><ele>703.0</ele><time>2026-04-19T15:51:47.999Z</time></trkpt><trkpt lat="45.6635792996383" lon="3.0403374504084555"><ele>703.0</ele><time>2026-04-19T15:51:50.999Z</time></trkpt><trkpt lat="45.66364589952121" lon="3.04041206148039"><ele>703.0</ele><time>2026-04-19T15:51:53.999Z</time></trkpt><trkpt lat="45.66371041480568" lon="3.040487508879361"><ele>703.0</ele><time>2026-04-19T15:51:56.999Z</time></trkpt><trkpt lat="45.66377647312105" lon="3.0405637248616038"><ele>703.0</ele><time>2026-04-19T15:51:59.999Z</time></trkpt><trkpt lat="45.663836365324634" lon="3.04063874338168"><ele>703.0</ele><time>2026-04-19T15:52:02.999Z</time></trkpt><trkpt lat="45.6638807656623" lon="3.0407236883597952"><ele>703.2857142857142</ele><time>2026-04-19T15:52:05.999Z</time></trkpt><trkpt lat="45.66390506239061" lon="3.0408141001370375"><ele>703.5714285714286</ele><time>2026-04-19T15:52:08.999Z</time></trkpt><trkpt lat="45.66391935219183" lon="3.040904989353897"><ele>703.8571428571429</ele><time>2026-04-19T15:52:11.999Z</time></trkpt><trkpt lat="45.66396115323058" lon="3.041014873104629"><ele>704.1428571428571</ele><time>2026-04-19T15:52:15.999Z</time></trkpt><trkpt lat="45.66400568127023" lon="3.041093164259222"><ele>704.4285714285714</ele><time>2026-04-19T15:52:18.999Z</time></trkpt><trkpt lat="45.66406815215477" lon="3.0411516597983455"><ele>704.7142857142857</ele><time>2026-04-19T15:52:21.999Z</time></trkpt><trkpt lat="45.664130696615345" lon="3.0411997798859236"><ele>705.0</ele><time>2026-04-19T15:52:24.999Z</time></trkpt><trkpt lat="45.664200515754146" lon="3.0412087812396487"><ele>705.0</ele><time>2026-04-19T15:52:27.999Z</time></trkpt><trkpt lat="45.66426392467833" lon="3.0412260276280274"><ele>705.0</ele><time>2026-04-19T15:52:30.999Z</time></trkpt><trkpt lat="45.66433926106079" lon="3.041223100543288"><ele>705.0</ele><time>2026-04-19T15:52:33.999Z</time></trkpt><trkpt lat="45.664416698495835" lon="3.041226678132855"><ele>705.0</ele><time>2026-04-19T15:52:36.999Z</time></trkpt><trkpt lat="45.664496223482196" lon="3.041227918799801"><ele>705.0</ele><time>2026-04-19T15:52:39.999Z</time></trkpt><trkpt lat="45.66458083479347" lon="3.0412347265740562"><ele>705.0</ele><time>2026-04-19T15:52:42.999Z</time></trkpt><trkpt lat="45.66466828426846" lon="3.04124165742094"><ele>706.5</ele><time>2026-04-19T15:52:45.999Z</time></trkpt><trkpt lat="45.66473507955007" lon="3.0412474068501405"><ele>708.0</ele><time>2026-04-19T15:52:47.999Z</time></trkpt><trkpt lat="45.66479997155924" lon="3.0412563685712946"><ele>709.5</ele><time>2026-04-19T15:52:49.999Z</time></trkpt><trkpt lat="45.66489153986047" lon="3.0412732484758482"><ele>711.0</ele><time>2026-04-19T15:52:52.998Z</time></trkpt><trkpt lat="45.66497613944578" lon="3.0412986904585426"><ele>712.5</ele><time>2026-04-19T15:52:55.998Z</time></trkpt><trkpt lat="45.66506353799239" lon="3.0413338102754888"><ele>714.0</ele><time>2026-04-19T15:52:58.998Z</time></trkpt><trkpt lat="45.66514701760153" lon="3.041361997573899"><ele>714.0</ele><time>2026-04-19T15:53:01.998Z</time></trkpt><trkpt lat="45.6651493574691" lon="3.041497441642916"><ele>714.0</ele><time>2026-04-19T15:53:04.998Z</time></trkpt><trkpt lat="45.66509417108173" lon="3.0416025541680893"><ele>714.0</ele><time>2026-04-19T15:53:06.998Z</time></trkpt><trkpt lat="45.66506386163581" lon="3.041726195739804"><ele>714.0</ele><time>2026-04-19T15:53:08.998Z</time></trkpt><trkpt lat="45.66503916263527" lon="3.041832922910582"><ele>714.0</ele><time>2026-04-19T15:53:10.998Z</time></trkpt><trkpt lat="45.66500998894428" lon="3.041941462665045"><ele>714.0</ele><time>2026-04-19T15:53:13Z</time></trkpt><trkpt lat="45.66499685353398" lon="3.0420709300958304"><ele>712.2</ele><time>2026-04-19T15:53:15Z</time></trkpt><trkpt lat="45.664988880515075" lon="3.0421957430236817"><ele>710.4000000000001</ele><time>2026-04-19T15:53:17Z</time></trkpt><trkpt lat="45.6649709346172" lon="3.04233530699739"><ele>708.6</ele><time>2026-04-19T15:53:19Z</time></trkpt><trkpt lat="45.66496924986386" lon="3.0425046703049876"><ele>706.8</ele><time>2026-04-19T15:53:21Z</time></trkpt><trkpt lat="45.66498300941312" lon="3.042674564966159"><ele>705.0</ele><time>2026-04-19T15:53:23Z</time></trkpt><trkpt lat="45.66499209296915" lon="3.0428396112233473"><ele>703.4</ele><time>2026-04-19T15:53:25Z</time></trkpt><trkpt lat="45.66500064584039" lon="3.0430038201403513"><ele>701.8</ele><time>2026-04-19T15:53:27Z</time></trkpt><trkpt lat="45.66503075247744" lon="3.043136682973293"><ele>700.2</ele><time>2026-04-19T15:53:29Z</time></trkpt><trkpt lat="45.665089220733925" lon="3.0432562074774707"><ele>698.6</ele><time>2026-04-19T15:53:30.999Z</time></trkpt><trkpt lat="45.6651417874744" lon="3.0433604940817873"><ele>697.0</ele><time>2026-04-19T15:53:32.999Z</time></trkpt><trkpt lat="45.665172128639554" lon="3.0434406067211417"><ele>696.8333333333334</ele><time>2026-04-19T15:53:42.999Z</time></trkpt><trkpt lat="45.66521016270808" lon="3.043534573627201"><ele>696.6666666666667</ele><time>2026-04-19T15:53:44.999Z</time></trkpt><trkpt lat="45.66525469719921" lon="3.043633261184533"><ele>696.5</ele><time>2026-04-19T15:53:46.999Z</time></trkpt><trkpt lat="45.66528811046223" lon="3.0437486197239116"><ele>696.3333333333334</ele><time>2026-04-19T15:53:48.999Z</time></trkpt><trkpt lat="45.665327419637244" lon="3.043853942317964"><ele>696.1666666666666</ele><time>2026-04-19T15:53:50.999Z</time></trkpt><trkpt lat="45.66536604539722" lon="3.0439627132211324"><ele>696.0</ele><time>2026-04-19T15:53:52.999Z</time></trkpt><trkpt lat="45.66541062941139" lon="3.0441010946332114"><ele>692.5999999999999</ele><time>2026-04-19T15:53:54.999Z</time></trkpt><trkpt lat="45.66544983327447" lon="3.044238018810807"><ele>689.2</ele><time>2026-04-19T15:53:56.999Z</time></trkpt><trkpt lat="45.66548220230966" lon="3.0443830355333996"><ele>685.8</ele><time>2026-04-19T15:53:58.999Z</time></trkpt><trkpt lat="45.665535923885095" lon="3.044502767559242"><ele>682.4000000000001</ele><time>2026-04-19T15:54:00.999Z</time></trkpt><trkpt lat="45.665596031515975" lon="3.04460616288073"><ele>679.0</ele><time>2026-04-19T15:54:02.999Z</time></trkpt><trkpt lat="45.665617150416914" lon="3.0447171549256633"><ele>679.0</ele><time>2026-04-19T15:54:04.999Z</time></trkpt><trkpt lat="45.66561565974966" lon="3.0448285215741024"><ele>679.0</ele><time>2026-04-19T15:54:06.999Z</time></trkpt><trkpt lat="45.665626798576255" lon="3.0449976081169874"><ele>679.0</ele><time>2026-04-19T15:54:08.999Z</time></trkpt><trkpt lat="45.66559130228083" lon="3.0451861755434204"><ele>679.0</ele><time>2026-04-19T15:54:10.999Z</time></trkpt><trkpt lat="45.665569469490514" lon="3.045280350944901"><ele>679.0</ele><time>2026-04-19T15:54:11.999Z</time></trkpt><trkpt lat="45.66553811767205" lon="3.04543330239083"><ele>679.4000000000001</ele><time>2026-04-19T15:54:13.999Z</time></trkpt><trkpt lat="45.66551095334672" lon="3.045576064325803"><ele>679.8</ele><time>2026-04-19T15:54:15.999Z</time></trkpt><trkpt lat="45.66550947821336" lon="3.0457215898832373"><ele>680.2</ele><time>2026-04-19T15:54:17.999Z</time></trkpt><trkpt lat="45.66546810147312" lon="3.045856349001216"><ele>680.5999999999999</ele><time>2026-04-19T15:54:19.999Z</time></trkpt><trkpt lat="45.6654302185657" lon="3.0460276359339535"><ele>681.0</ele><time>2026-04-19T15:54:21.999Z</time></trkpt><trkpt lat="45.665432148253394" lon="3.0461231815797714"><ele>679.8</ele><time>2026-04-19T15:54:22.999Z</time></trkpt><trkpt lat="45.66542190189545" lon="3.0462793708580764"><ele>678.5999999999999</ele><time>2026-04-19T15:54:24.999Z</time></trkpt><trkpt lat="45.66535158543818" lon="3.046407178359726"><ele>677.4</ele><time>2026-04-19T15:54:26.999Z</time></trkpt><trkpt lat="45.66533341327272" lon="3.046553692855497"><ele>676.2</ele><time>2026-04-19T15:54:28.999Z</time></trkpt><trkpt lat="45.66533446109419" lon="3.0466937366082223"><ele>675.0</ele><time>2026-04-19T15:54:30.999Z</time></trkpt><trkpt lat="45.665315769877196" lon="3.0468092829772586"><ele>673.6666666666666</ele><time>2026-04-19T15:54:32.999Z</time></trkpt><trkpt lat="45.66528757931818" lon="3.0469343433625884"><ele>672.3333333333334</ele><time>2026-04-19T15:54:35.999Z</time></trkpt><trkpt lat="45.66525150790514" lon="3.047037894348978"><ele>671.0</ele><time>2026-04-19T15:54:37.999Z</time></trkpt><trkpt lat="45.66520273345662" lon="3.0471225522269605"><ele>669.6666666666667</ele><time>2026-04-19T15:54:41Z</time></trkpt><trkpt lat="45.665168382315606" lon="3.0472332693446034"><ele>668.3333333333334</ele><time>2026-04-19T15:54:43.999Z</time></trkpt><trkpt lat="45.66511647866541" lon="3.04730899995107"><ele>667.0</ele><time>2026-04-19T15:54:47.999Z</time></trkpt><trkpt lat="45.6650561226829" lon="3.047356905651326"><ele>667.0</ele><time>2026-04-19T15:54:51.999Z</time></trkpt><trkpt lat="45.6649686363565" lon="3.0473202353640185"><ele>667.0</ele><time>2026-04-19T15:54:56.999Z</time></trkpt><trkpt lat="45.66488794588515" lon="3.047282544248782"><ele>667.0</ele><time>2026-04-19T15:54:58.999Z</time></trkpt><trkpt lat="45.664770753909345" lon="3.0471757900127368"><ele>667.0</ele><time>2026-04-19T15:55:00.999Z</time></trkpt><trkpt lat="45.664701536490405" lon="3.047119674467307"><ele>667.0</ele><time>2026-04-19T15:55:01.999Z</time></trkpt><trkpt lat="45.66462968249832" lon="3.047062648421631"><ele>667.0</ele><time>2026-04-19T15:55:02.999Z</time></trkpt><trkpt lat="45.66455689430276" lon="3.0470157283259245"><ele>667.0</ele><time>2026-04-19T15:55:03.999Z</time></trkpt><trkpt lat="45.6644913447677" lon="3.046951156875782"><ele>667.0</ele><time>2026-04-19T15:55:04.999Z</time></trkpt><trkpt lat="45.66444406478211" lon="3.0468497318902616"><ele>667.0</ele><time>2026-04-19T15:55:05.999Z</time></trkpt><trkpt lat="45.66441511892693" lon="3.0467463370707595"><ele>667.0</ele><time>2026-04-19T15:55:06.999Z</time></trkpt><trkpt lat="45.66438278535678" lon="3.046642259026661"><ele>667.0</ele><time>2026-04-19T15:55:07.999Z</time></trkpt><trkpt lat="45.66434712964787" lon="3.0465445679191148"><ele>668.0</ele><time>2026-04-19T15:55:08.999Z</time></trkpt><trkpt lat="45.66430969136819" lon="3.046465609379166"><ele>669.0</ele><time>2026-04-19T15:55:09.999Z</time></trkpt><trkpt lat="45.66426928845423" lon="3.046393905440772"><ele>670.0</ele><time>2026-04-19T15:55:10.999Z</time></trkpt><trkpt lat="45.664227252802085" lon="3.0463238917262365"><ele>671.0</ele><time>2026-04-19T15:55:11.999Z</time></trkpt><trkpt lat="45.66413503373846" lon="3.046253802031336"><ele>672.0</ele><time>2026-04-19T15:55:13.999Z</time></trkpt><trkpt lat="45.66405498035114" lon="3.0462405834904818"><ele>673.0</ele><time>2026-04-19T15:55:15.999Z</time></trkpt><trkpt lat="45.66398236794393" lon="3.0462713400784818"><ele>673.0</ele><time>2026-04-19T15:55:19Z</time></trkpt><trkpt lat="45.663923657785205" lon="3.046314482953509"><ele>673.0</ele><time>2026-04-19T15:55:22Z</time></trkpt><trkpt lat="45.663861550843485" lon="3.046381397102785"><ele>673.0</ele><time>2026-04-19T15:55:26Z</time></trkpt><trkpt lat="45.66381844707452" lon="3.046461078395081"><ele>673.0</ele><time>2026-04-19T15:55:29Z</time></trkpt><trkpt lat="45.66375988886781" lon="3.046522544646302"><ele>673.0</ele><time>2026-04-19T15:55:34Z</time></trkpt><trkpt lat="45.663698931509806" lon="3.0465714286752252"><ele>673.0</ele><time>2026-04-19T15:55:42Z</time></trkpt><trkpt lat="45.66363307813864" lon="3.046625219336314"><ele>673.0</ele><time>2026-04-19T15:55:44Z</time></trkpt><trkpt lat="45.66356038218334" lon="3.046626062017727"><ele>672.0</ele><time>2026-04-19T15:55:46Z</time></trkpt><trkpt lat="45.66346018436327" lon="3.0466348491510846"><ele>671.0</ele><time>2026-04-19T15:55:48Z</time></trkpt><trkpt lat="45.66334390884325" lon="3.046634758143592"><ele>670.0</ele><time>2026-04-19T15:55:50Z</time></trkpt><trkpt lat="45.66325713232291" lon="3.046570166270588"><ele>669.0</ele><time>2026-04-19T15:55:52Z</time></trkpt><trkpt lat="45.663167315628534" lon="3.046575089114062"><ele>668.0</ele><time>2026-04-19T15:55:54Z</time></trkpt><trkpt lat="45.66306221479268" lon="3.046626555764645"><ele>666.0</ele><time>2026-04-19T15:55:56Z</time></trkpt><trkpt lat="45.662997046008044" lon="3.0466418974651326"><ele>664.0</ele><time>2026-04-19T15:55:57Z</time></trkpt><trkpt lat="45.66293060865491" lon="3.046697355375545"><ele>662.0</ele><time>2026-04-19T15:55:59Z</time></trkpt><trkpt lat="45.66293043103597" lon="3.046858198390653"><ele>660.0</ele><time>2026-04-19T15:56:01Z</time></trkpt><trkpt lat="45.66291342061781" lon="3.046951441958748"><ele>658.0</ele><time>2026-04-19T15:56:02Z</time></trkpt><trkpt lat="45.66289810842906" lon="3.0470541079991813"><ele>656.0</ele><time>2026-04-19T15:56:03Z</time></trkpt><trkpt lat="45.66290091633271" lon="3.0471880581230995"><ele>656.0</ele><time>2026-04-19T15:56:05Z</time></trkpt><trkpt lat="45.66289083195815" lon="3.04733226317316"><ele>656.0</ele><time>2026-04-19T15:56:07Z</time></trkpt><trkpt lat="45.662863766587506" lon="3.047435654806198"><ele>656.0</ele><time>2026-04-19T15:56:09Z</time></trkpt><trkpt lat="45.66284879819104" lon="3.047552620176691"><ele>656.0</ele><time>2026-04-19T15:56:11Z</time></trkpt><trkpt lat="45.66281183243421" lon="3.047666265604625"><ele>656.0</ele><time>2026-04-19T15:56:13Z</time></trkpt><trkpt lat="45.66276383417466" lon="3.0477672670497564"><ele>656.0</ele><time>2026-04-19T15:56:15Z</time></trkpt><trkpt lat="45.66271652888858" lon="3.0478805432865386"><ele>655.1666666666666</ele><time>2026-04-19T15:56:17Z</time></trkpt><trkpt lat="45.66267505690699" lon="3.047957426375131"><ele>654.3333333333333</ele><time>2026-04-19T15:56:19Z</time></trkpt><trkpt lat="45.662660740341295" lon="3.048055961665518"><ele>653.5</ele><time>2026-04-19T15:56:21Z</time></trkpt><trkpt lat="45.66265347612751" lon="3.048164222127614"><ele>652.6666666666666</ele><time>2026-04-19T15:56:23Z</time></trkpt><trkpt lat="45.66262259287936" lon="3.048285771979108"><ele>651.8333333333334</ele><time>2026-04-19T15:56:25Z</time></trkpt><trkpt lat="45.66259089052057" lon="3.0484390671102695"><ele>651.0</ele><time>2026-04-19T15:56:27Z</time></trkpt><trkpt lat="45.66262951611124" lon="3.0485848179185155"><ele>651.0</ele><time>2026-04-19T15:56:29Z</time></trkpt><trkpt lat="45.662682360452095" lon="3.0486623331734517"><ele>651.0</ele><time>2026-04-19T15:56:31Z</time></trkpt><trkpt lat="45.66275161419822" lon="3.048751507197923"><ele>651.0</ele><time>2026-04-19T15:56:35Z</time></trkpt><trkpt lat="45.6628398270042" lon="3.0488107291937827"><ele>651.0</ele><time>2026-04-19T15:56:37Z</time></trkpt><trkpt lat="45.66290738161135" lon="3.0488746736903516"><ele>651.0</ele><time>2026-04-19T15:56:39Z</time></trkpt><trkpt lat="45.66297304906449" lon="3.048947177829485"><ele>651.0</ele><time>2026-04-19T15:56:41Z</time></trkpt><trkpt lat="45.663010213790216" lon="3.049053149853202"><ele>650.6666666666666</ele><time>2026-04-19T15:56:42.999Z</time></trkpt><trkpt lat="45.66296794760989" lon="3.0491511360041383"><ele>650.3333333333334</ele><time>2026-04-19T15:56:44.999Z</time></trkpt><trkpt lat="45.662905178330035" lon="3.0491766513428633"><ele>650.0</ele><time>2026-04-19T15:56:46.999Z</time></trkpt><trkpt lat="45.66285596085247" lon="3.0492360019800397"><ele>649.6666666666667</ele><time>2026-04-19T15:56:48.999Z</time></trkpt><trkpt lat="45.66276319845079" lon="3.0492754255677483"><ele>649.3333333333334</ele><time>2026-04-19T15:56:50.999Z</time></trkpt><trkpt lat="45.66270561320824" lon="3.049359982326171"><ele>649.0</ele><time>2026-04-19T15:56:52.999Z</time></trkpt><trkpt lat="45.66267366743244" lon="3.049451168047038"><ele>649.0</ele><time>2026-04-19T15:56:55.999Z</time></trkpt><trkpt lat="45.66261473165694" lon="3.0495418048501115"><ele>649.0</ele><time>2026-04-19T15:56:57.999Z</time></trkpt><trkpt lat="45.662540314754395" lon="3.0496060846688637"><ele>649.0</ele><time>2026-04-19T15:56:59.999Z</time></trkpt><trkpt lat="45.6624893025818" lon="3.049679388247252"><ele>649.0</ele><time>2026-04-19T15:57:01.999Z</time></trkpt><trkpt lat="45.662476066918266" lon="3.049771830729855"><ele>649.0</ele><time>2026-04-19T15:57:03.999Z</time></trkpt><trkpt lat="45.66244601189067" lon="3.0498810242567536"><ele>649.0</ele><time>2026-04-19T15:57:06.999Z</time></trkpt><trkpt lat="45.66237960351301" lon="3.049948711525678"><ele>649.6666666666667</ele><time>2026-04-19T15:57:09.999Z</time></trkpt><trkpt lat="45.662336177041446" lon="3.0500186541630376"><ele>650.3333333333334</ele><time>2026-04-19T15:57:11.999Z</time></trkpt><trkpt lat="45.66228082064481" lon="3.0500718905942668"><ele>651.0</ele><time>2026-04-19T15:57:14.999Z</time></trkpt><trkpt lat="45.66220166912957" lon="3.050102657435945"><ele>651.6666666666666</ele><time>2026-04-19T15:57:16.999Z</time></trkpt><trkpt lat="45.662131151876316" lon="3.050130709492831"><ele>652.3333333333333</ele><time>2026-04-19T15:57:19.999Z</time></trkpt><trkpt lat="45.66204437794801" lon="3.050217125058305"><ele>653.0</ele><time>2026-04-19T15:57:23Z</time></trkpt><trkpt lat="45.662012724577636" lon="3.0503093760091087"><ele>651.6666666666666</ele><time>2026-04-19T15:57:25Z</time></trkpt><trkpt lat="45.66193310233193" lon="3.0503699385788674"><ele>650.3333333333333</ele><time>2026-04-19T15:57:29Z</time></trkpt><trkpt lat="45.66186891392295" lon="3.0504105214318002"><ele>649.0</ele><time>2026-04-19T15:57:31Z</time></trkpt><trkpt lat="45.66185735295907" lon="3.050527267823478"><ele>647.6666666666666</ele><time>2026-04-19T15:57:34Z</time></trkpt><trkpt lat="45.661827510873735" lon="3.0506182190900115"><ele>646.3333333333334</ele><time>2026-04-19T15:57:38Z</time></trkpt><trkpt lat="45.66176053062434" lon="3.0505558662111385"><ele>645.0</ele><time>2026-04-19T15:57:47Z</time></trkpt><trkpt lat="45.66170022665335" lon="3.0505873119059537"><ele>645.0</ele><time>2026-04-19T15:57:54Z</time></trkpt><trkpt lat="45.66164354456798" lon="3.0506805029647186"><ele>645.0</ele><time>2026-04-19T15:57:57Z</time></trkpt><trkpt lat="45.66165237215768" lon="3.0508364572806235"><ele>645.0</ele><time>2026-04-19T15:57:59Z</time></trkpt><trkpt lat="45.661656020798254" lon="3.051007069643035"><ele>645.0</ele><time>2026-04-19T15:58:01Z</time></trkpt><trkpt lat="45.66164450603722" lon="3.0511923445832703"><ele>645.0</ele><time>2026-04-19T15:58:03Z</time></trkpt><trkpt lat="45.66156493130307" lon="3.0513148340188128"><ele>645.3333333333334</ele><time>2026-04-19T15:58:05Z</time></trkpt><trkpt lat="45.66151257480562" lon="3.0513675887304412"><ele>645.6666666666666</ele><time>2026-04-19T15:58:06Z</time></trkpt><trkpt lat="45.66147072837393" lon="3.051453186586046"><ele>646.0</ele><time>2026-04-19T15:58:07Z</time></trkpt><trkpt lat="45.66145562854486" lon="3.051564966122587"><ele>646.3333333333333</ele><time>2026-04-19T15:58:08Z</time></trkpt><trkpt lat="45.66142369406448" lon="3.0516915866895116"><ele>646.6666666666666</ele><time>2026-04-19T15:58:09Z</time></trkpt><trkpt lat="45.66140292273356" lon="3.051808756867141"><ele>647.0</ele><time>2026-04-19T15:58:10Z</time></trkpt><trkpt lat="45.66140948374327" lon="3.0519144443927786"><ele>647.0</ele><time>2026-04-19T15:58:11Z</time></trkpt><trkpt lat="45.66139098498481" lon="3.052011209546083"><ele>647.0</ele><time>2026-04-19T15:58:12Z</time></trkpt><trkpt lat="45.66135676632052" lon="3.0520880168606186"><ele>647.0</ele><time>2026-04-19T15:58:14Z</time></trkpt><trkpt lat="45.661334558717954" lon="3.0522351375208725"><ele>647.0</ele><time>2026-04-19T15:58:17Z</time></trkpt><trkpt lat="45.661280599638815" lon="3.0523059020857644"><ele>647.0</ele><time>2026-04-19T15:58:18Z</time></trkpt><trkpt lat="45.661232389145354" lon="3.052369987354247"><ele>647.0</ele><time>2026-04-19T15:58:19Z</time></trkpt><trkpt lat="45.66117164122024" lon="3.0524249018044336"><ele>644.2</ele><time>2026-04-19T15:58:20Z</time></trkpt><trkpt lat="45.66110312021697" lon="3.052495508414096"><ele>641.4000000000001</ele><time>2026-04-19T15:58:21Z</time></trkpt><trkpt lat="45.66110154617105" lon="3.0527139897320748"><ele>638.5999999999999</ele><time>2026-04-19T15:58:23Z</time></trkpt><trkpt lat="45.661091189614766" lon="3.0528471412295293"><ele>635.8</ele><time>2026-04-19T15:58:24Z</time></trkpt><trkpt lat="45.66099073193132" lon="3.052863861568254"><ele>633.0</ele><time>2026-04-19T15:58:26Z</time></trkpt><trkpt lat="45.6609349511866" lon="3.052927519698996"><ele>633.0</ele><time>2026-04-19T15:58:28Z</time></trkpt><trkpt lat="45.660889969768554" lon="3.053012525733622"><ele>633.0</ele><time>2026-04-19T15:58:30Z</time></trkpt><trkpt lat="45.66083329628369" lon="3.0530880175891277"><ele>633.0</ele><time>2026-04-19T15:58:31Z</time></trkpt><trkpt lat="45.66078980666383" lon="3.0531859399556756"><ele>633.0</ele><time>2026-04-19T15:58:32Z</time></trkpt><trkpt lat="45.66076338009423" lon="3.0532907487556105"><ele>633.0</ele><time>2026-04-19T15:58:33Z</time></trkpt><trkpt lat="45.66074583122161" lon="3.0533868555660293"><ele>633.0</ele><time>2026-04-19T15:58:34Z</time></trkpt><trkpt lat="45.66073355500024" lon="3.053476612190082"><ele>633.0</ele><time>2026-04-19T15:58:35Z</time></trkpt><trkpt lat="45.660705793190616" lon="3.0536276412526133"><ele>633.1666666666666</ele><time>2026-04-19T15:58:37Z</time></trkpt><trkpt lat="45.66067687260578" lon="3.0537367113872436"><ele>633.3333333333334</ele><time>2026-04-19T15:58:39Z</time></trkpt><trkpt lat="45.66064131668452" lon="3.0538352656876624"><ele>633.5</ele><time>2026-04-19T15:58:40.999Z</time></trkpt><trkpt lat="45.66060342912707" lon="3.053912385255877"><ele>633.6666666666667</ele><time>2026-04-19T15:58:41.999Z</time></trkpt><trkpt lat="45.66051802592683" lon="3.0539660297605686"><ele>633.8333333333334</ele><time>2026-04-19T15:58:43.999Z</time></trkpt><trkpt lat="45.66045055891983" lon="3.0540419058704575"><ele>634.0</ele><time>2026-04-19T15:58:45.999Z</time></trkpt><trkpt lat="45.660396205853715" lon="3.0541459535522404"><ele>633.6</ele><time>2026-04-19T15:58:47.999Z</time></trkpt><trkpt lat="45.66037444645644" lon="3.054246154444428"><ele>633.2</ele><time>2026-04-19T15:58:48.999Z</time></trkpt><trkpt lat="45.660366343726295" lon="3.0544075768790626"><ele>632.8000000000001</ele><time>2026-04-19T15:58:50.999Z</time></trkpt><trkpt lat="45.66035641444561" lon="3.054568469338874"><ele>632.4</ele><time>2026-04-19T15:58:52.999Z</time></trkpt><trkpt lat="45.66033479948972" lon="3.0546817376097857"><ele>632.0</ele><time>2026-04-19T15:58:54.999Z</time></trkpt><trkpt lat="45.66031417948096" lon="3.0547778616330796"><ele>632.0</ele><time>2026-04-19T15:58:56.999Z</time></trkpt><trkpt lat="45.66028585388059" lon="3.0548727372848807"><ele>632.0</ele><time>2026-04-19T15:58:58.999Z</time></trkpt><trkpt lat="45.66026132976691" lon="3.05499469166421"><ele>632.0</ele><time>2026-04-19T15:59:00.999Z</time></trkpt><trkpt lat="45.66024889762456" lon="3.0551217244774014"><ele>632.0</ele><time>2026-04-19T15:59:02.999Z</time></trkpt><trkpt lat="45.660265170407776" lon="3.0552389937374382"><ele>632.0</ele><time>2026-04-19T15:59:04.999Z</time></trkpt><trkpt lat="45.660267494360184" lon="3.055361698465823"><ele>632.0</ele><time>2026-04-19T15:59:06.999Z</time></trkpt><trkpt lat="45.66025137110081" lon="3.05549292796434"><ele>631.0000000000001</ele><time>2026-04-19T15:59:08.999Z</time></trkpt><trkpt lat="45.660240727699545" lon="3.055606879843996"><ele>630.0</ele><time>2026-04-19T15:59:10.999Z</time></trkpt><trkpt lat="45.66023478078816" lon="3.0557031724118824"><ele>629.0</ele><time>2026-04-19T15:59:12.999Z</time></trkpt><trkpt lat="45.66027798675759" lon="3.05580734547894"><ele>628.0</ele><time>2026-04-19T15:59:14.999Z</time></trkpt><trkpt lat="45.66024940692393" lon="3.0559254330629866"><ele>627.0</ele><time>2026-04-19T15:59:17.999Z</time></trkpt><trkpt lat="45.660204206933635" lon="3.055991906755688"><ele>626.0000000000001</ele><time>2026-04-19T15:59:20.999Z</time></trkpt><trkpt lat="45.66017181884383" lon="3.056070455902098"><ele>625.0</ele><time>2026-04-19T15:59:38Z</time></trkpt><trkpt lat="45.66011179370525" lon="3.0561255220856345"><ele>624.8333333333334</ele><time>2026-04-19T15:59:42Z</time></trkpt><trkpt lat="45.66004199760195" lon="3.0561471849360995"><ele>624.6666666666667</ele><time>2026-04-19T15:59:45Z</time></trkpt><trkpt lat="45.65997078043127" lon="3.056116569266289"><ele>624.5</ele><time>2026-04-19T15:59:47Z</time></trkpt><trkpt lat="45.65989338795024" lon="3.0560741188609857"><ele>624.3333333333334</ele><time>2026-04-19T15:59:49Z</time></trkpt><trkpt lat="45.659807811898546" lon="3.0560273302857657"><ele>624.1666666666666</ele><time>2026-04-19T15:59:51Z</time></trkpt><trkpt lat="45.65973513996833" lon="3.0559576919585676"><ele>624.0</ele><time>2026-04-19T15:59:53Z</time></trkpt><trkpt lat="45.65966070461761" lon="3.0558940242232158"><ele>624.0</ele><time>2026-04-19T15:59:55Z</time></trkpt><trkpt lat="45.65957448556365" lon="3.055863329773109"><ele>624.0</ele><time>2026-04-19T15:59:57Z</time></trkpt><trkpt lat="45.65948344922528" lon="3.055868359839718"><ele>624.0</ele><time>2026-04-19T15:59:59Z</time></trkpt><trkpt lat="45.65939573100218" lon="3.055914654154525"><ele>624.0</ele><time>2026-04-19T16:00:01Z</time></trkpt><trkpt lat="45.659309256030284" lon="3.0559536015145836"><ele>624.0</ele><time>2026-04-19T16:00:03Z</time></trkpt><trkpt lat="45.659214656890775" lon="3.0559901200290316"><ele>623.6666666666666</ele><time>2026-04-19T16:00:05Z</time></trkpt><trkpt lat="45.659122012559806" lon="3.0560152216942553"><ele>623.3333333333334</ele><time>2026-04-19T16:00:07Z</time></trkpt><trkpt lat="45.65903100416313" lon="3.056065681190947"><ele>623.0</ele><time>2026-04-19T16:00:09Z</time></trkpt><trkpt lat="45.658954181507944" lon="3.0561036007786773"><ele>622.6666666666667</ele><time>2026-04-19T16:00:11Z</time></trkpt><trkpt lat="45.65887927140844" lon="3.056132036928618"><ele>622.3333333333334</ele><time>2026-04-19T16:00:13Z</time></trkpt><trkpt lat="45.65879028937768" lon="3.05616074343567"><ele>622.0</ele><time>2026-04-19T16:00:15Z</time></trkpt><trkpt lat="45.65871754549652" lon="3.0561605884431104"><ele>622.0</ele><time>2026-04-19T16:00:17Z</time></trkpt><trkpt lat="45.658667372881304" lon="3.0560595261550207"><ele>622.0</ele><time>2026-04-19T16:00:24Z</time></trkpt><trkpt lat="45.6585956719747" lon="3.0561054524534037"><ele>622.0</ele><time>2026-04-19T16:00:26Z</time></trkpt><trkpt lat="45.658530333810106" lon="3.056225089293704"><ele>622.0</ele><time>2026-04-19T16:00:28Z</time></trkpt><trkpt lat="45.65847059740929" lon="3.0563100888151054"><ele>622.0</ele><time>2026-04-19T16:00:30Z</time></trkpt><trkpt lat="45.65838737616817" lon="3.0563350922660035"><ele>622.0</ele><time>2026-04-19T16:00:33Z</time></trkpt><trkpt lat="45.65829830458047" lon="3.05639050417207"><ele>621.6</ele><time>2026-04-19T16:00:36Z</time></trkpt><trkpt lat="45.658230764827245" lon="3.0564602524635376"><ele>621.2</ele><time>2026-04-19T16:00:38Z</time></trkpt><trkpt lat="45.658133783443915" lon="3.0564774081281945"><ele>620.8</ele><time>2026-04-19T16:00:40Z</time></trkpt><trkpt lat="45.65805398754475" lon="3.0565279151149056"><ele>620.4</ele><time>2026-04-19T16:00:41.999Z</time></trkpt><trkpt lat="45.65798115549553" lon="3.056619168529303"><ele>620.0</ele><time>2026-04-19T16:00:43.999Z</time></trkpt><trkpt lat="45.65791684281452" lon="3.05669940612902"><ele>619.6666666666666</ele><time>2026-04-19T16:00:45.999Z</time></trkpt><trkpt lat="45.65790310348939" lon="3.0568146770858577"><ele>619.3333333333333</ele><time>2026-04-19T16:00:47.999Z</time></trkpt><trkpt lat="45.657840837208084" lon="3.0568900014246636"><ele>619.0</ele><time>2026-04-19T16:00:49.999Z</time></trkpt><trkpt lat="45.657739146530055" lon="3.056883857194301"><ele>618.6666666666666</ele><time>2026-04-19T16:00:51.999Z</time></trkpt><trkpt lat="45.657650765049326" lon="3.0568522328728283"><ele>618.3333333333334</ele><time>2026-04-19T16:00:53.999Z</time></trkpt><trkpt lat="45.657574305580084" lon="3.0568296751776174"><ele>618.0</ele><time>2026-04-19T16:00:55.999Z</time></trkpt><trkpt lat="45.65749650248599" lon="3.0568400017112856"><ele>618.0</ele><time>2026-04-19T16:00:57.999Z</time></trkpt><trkpt lat="45.65741302282242" lon="3.0568535797264547"><ele>618.0</ele><time>2026-04-19T16:00:59.999Z</time></trkpt><trkpt lat="45.65735573890598" lon="3.0569227547419504"><ele>618.0</ele><time>2026-04-19T16:01:01.999Z</time></trkpt><trkpt lat="45.65732048304501" lon="3.0570301027956113"><ele>618.0</ele><time>2026-04-19T16:01:03.999Z</time></trkpt><trkpt lat="45.657293492795475" lon="3.057134914319616"><ele>618.0</ele><time>2026-04-19T16:01:05.999Z</time></trkpt><trkpt lat="45.65725998695808" lon="3.057256119436978"><ele>618.0</ele><time>2026-04-19T16:01:07.999Z</time></trkpt><trkpt lat="45.65721151582566" lon="3.057371276870534"><ele>617.6</ele><time>2026-04-19T16:01:09.999Z</time></trkpt><trkpt lat="45.65715297094475" lon="3.0574936788050526"><ele>617.1999999999999</ele><time>2026-04-19T16:01:11.999Z</time></trkpt><trkpt lat="45.65708557578958" lon="3.057573020928346"><ele>616.8</ele><time>2026-04-19T16:01:13.999Z</time></trkpt><trkpt lat="45.65701282351574" lon="3.0576716674795277"><ele>616.4</ele><time>2026-04-19T16:01:15.999Z</time></trkpt><trkpt lat="45.65691756976506" lon="3.0577659006343385"><ele>616.0</ele><time>2026-04-19T16:01:17.999Z</time></trkpt><trkpt lat="45.656827945626006" lon="3.0578415735022477"><ele>615.8</ele><time>2026-04-19T16:01:19.999Z</time></trkpt><trkpt lat="45.65674200326388" lon="3.0579568799106207"><ele>615.6</ele><time>2026-04-19T16:01:21.999Z</time></trkpt><trkpt lat="45.65667219422977" lon="3.0580792062459956"><ele>615.4</ele><time>2026-04-19T16:01:23.999Z</time></trkpt><trkpt lat="45.65661825964542" lon="3.0582192638946952"><ele>615.2</ele><time>2026-04-19T16:01:25.999Z</time></trkpt><trkpt lat="45.65657382070356" lon="3.058357290287255"><ele>615.0</ele><time>2026-04-19T16:01:27.999Z</time></trkpt><trkpt lat="45.656526965381" lon="3.058497675993571"><ele>615.0</ele><time>2026-04-19T16:01:29.999Z</time></trkpt><trkpt lat="45.656469929526075" lon="3.058637696019519"><ele>615.0</ele><time>2026-04-19T16:01:31.999Z</time></trkpt><trkpt lat="45.65641581743958" lon="3.0587777421936497"><ele>615.0</ele><time>2026-04-19T16:01:33.999Z</time></trkpt><trkpt lat="45.65638080794909" lon="3.058924582452265"><ele>615.0</ele><time>2026-04-19T16:01:36Z</time></trkpt><trkpt lat="45.65635952963203" lon="3.0590870039905362"><ele>615.0</ele><time>2026-04-19T16:01:38Z</time></trkpt><trkpt lat="45.65637135740428" lon="3.059253225117751"><ele>614.6</ele><time>2026-04-19T16:01:40Z</time></trkpt><trkpt lat="45.656371804109234" lon="3.0594185020149087"><ele>614.2</ele><time>2026-04-19T16:01:42Z</time></trkpt><trkpt lat="45.6563738455611" lon="3.0595724663173822"><ele>613.8</ele><time>2026-04-19T16:01:44Z</time></trkpt><trkpt lat="45.65637244301258" lon="3.059732940784514"><ele>613.4</ele><time>2026-04-19T16:01:46Z</time></trkpt><trkpt lat="45.65636211667383" lon="3.059824693586017"><ele>613.0</ele><time>2026-04-19T16:01:47Z</time></trkpt><trkpt lat="45.65634563811948" lon="3.0599746699381902"><ele>613.0</ele><time>2026-04-19T16:01:49Z</time></trkpt><trkpt lat="45.656329563902084" lon="3.0601443260730146"><ele>613.0</ele><time>2026-04-19T16:01:51Z</time></trkpt><trkpt lat="45.65630677257649" lon="3.060295220017907"><ele>613.0</ele><time>2026-04-19T16:01:53Z</time></trkpt><trkpt lat="45.65624723354206" lon="3.0604363416691656"><ele>613.0</ele><time>2026-04-19T16:01:55Z</time></trkpt><trkpt lat="45.656182309406006" lon="3.0605707127687936"><ele>613.0</ele><time>2026-04-19T16:01:57Z</time></trkpt><trkpt lat="45.65612656063749" lon="3.0607024507033778"><ele>613.0</ele><time>2026-04-19T16:01:59Z</time></trkpt><trkpt lat="45.65606461474606" lon="3.0608362752324023"><ele>613.0</ele><time>2026-04-19T16:02:01Z</time></trkpt><trkpt lat="45.6560461804385" lon="3.0610080398726396"><ele>613.0</ele><time>2026-04-19T16:02:03Z</time></trkpt><trkpt lat="45.65606317812639" lon="3.0611787226650145"><ele>613.25</ele><time>2026-04-19T16:02:05Z</time></trkpt><trkpt lat="45.656092657430605" lon="3.061338227653119"><ele>613.5</ele><time>2026-04-19T16:02:07Z</time></trkpt><trkpt lat="45.656121897306996" lon="3.0614982799311026"><ele>613.75</ele><time>2026-04-19T16:02:09Z</time></trkpt><trkpt lat="45.65615208875968" lon="3.0616357333619253"><ele>614.0</ele><time>2026-04-19T16:02:11Z</time></trkpt><trkpt lat="45.6561983106778" lon="3.0617926228229764"><ele>614.2</ele><time>2026-04-19T16:02:13Z</time></trkpt><trkpt lat="45.656247004218585" lon="3.0619471598784633"><ele>614.4</ele><time>2026-04-19T16:02:15Z</time></trkpt><trkpt lat="45.656267095490634" lon="3.0621109018952386"><ele>614.6</ele><time>2026-04-19T16:02:17Z</time></trkpt><trkpt lat="45.65624831591829" lon="3.0622741823465067"><ele>614.8</ele><time>2026-04-19T16:02:19Z</time></trkpt><trkpt lat="45.656208124712656" lon="3.0623857151809624"><ele>615.0</ele><time>2026-04-19T16:02:21Z</time></trkpt><trkpt lat="45.65615798662226" lon="3.062491453873957"><ele>615.4</ele><time>2026-04-19T16:02:23Z</time></trkpt><trkpt lat="45.65608772139851" lon="3.0626096990931346"><ele>615.8</ele><time>2026-04-19T16:02:25Z</time></trkpt><trkpt lat="45.656042812428076" lon="3.0627535321064783"><ele>616.2</ele><time>2026-04-19T16:02:27Z</time></trkpt><trkpt lat="45.65601201670301" lon="3.0629023795873174"><ele>616.6</ele><time>2026-04-19T16:02:29Z</time></trkpt><trkpt lat="45.65598568627031" lon="3.063057477058434"><ele>617.0</ele><time>2026-04-19T16:02:31Z</time></trkpt><trkpt lat="45.65595627093151" lon="3.063205670411548"><ele>617.0</ele><time>2026-04-19T16:02:33Z</time></trkpt><trkpt lat="45.65593837498031" lon="3.06333981464339"><ele>617.0</ele><time>2026-04-19T16:02:35Z</time></trkpt><trkpt lat="45.65591980250119" lon="3.063493283203159"><ele>617.0</ele><time>2026-04-19T16:02:37Z</time></trkpt><trkpt lat="45.65590702049115" lon="3.0636337884099767"><ele>617.0</ele><time>2026-04-19T16:02:39Z</time></trkpt><trkpt lat="45.655886434712414" lon="3.063754640259138"><ele>617.0</ele><time>2026-04-19T16:02:41Z</time></trkpt><trkpt lat="45.655850022965204" lon="3.0638322753221394"><ele>617.0</ele><time>2026-04-19T16:02:43Z</time></trkpt><trkpt lat="45.65580113186047" lon="3.063904318401754"><ele>617.0</ele><time>2026-04-19T16:02:44.999Z</time></trkpt><trkpt lat="45.65572988988656" lon="3.064003034927549"><ele>617.0</ele><time>2026-04-19T16:02:46.999Z</time></trkpt><trkpt lat="45.65566836340541" lon="3.064139169728542"><ele>617.0</ele><time>2026-04-19T16:02:48.999Z</time></trkpt><trkpt lat="45.65559201640423" lon="3.064258686183922"><ele>617.0</ele><time>2026-04-19T16:02:50.999Z</time></trkpt><trkpt lat="45.65550946133103" lon="3.064357926398975"><ele>616.8333333333333</ele><time>2026-04-19T16:02:52.999Z</time></trkpt><trkpt lat="45.65544339930677" lon="3.064460321577786"><ele>616.6666666666666</ele><time>2026-04-19T16:02:54.999Z</time></trkpt><trkpt lat="45.65542785281945" lon="3.0645819137848034"><ele>616.5</ele><time>2026-04-19T16:02:56.999Z</time></trkpt><trkpt lat="45.655449232047886" lon="3.0646971760039516"><ele>616.3333333333334</ele><time>2026-04-19T16:02:58.999Z</time></trkpt><trkpt lat="45.65544966947549" lon="3.0648151672272546"><ele>616.1666666666667</ele><time>2026-04-19T16:03:00.999Z</time></trkpt><trkpt lat="45.65545534130704" lon="3.0649363870048916"><ele>616.0</ele><time>2026-04-19T16:03:02.999Z</time></trkpt><trkpt lat="45.65546420967283" lon="3.065074046270663"><ele>615.5</ele><time>2026-04-19T16:03:04.999Z</time></trkpt><trkpt lat="45.655470098893616" lon="3.0652255743357664"><ele>615.0</ele><time>2026-04-19T16:03:06.999Z</time></trkpt><trkpt lat="45.65547572650049" lon="3.065397415676655"><ele>614.5</ele><time>2026-04-19T16:03:08.999Z</time></trkpt><trkpt lat="45.65548903554523" lon="3.06557499581839"><ele>614.0</ele><time>2026-04-19T16:03:10.999Z</time></trkpt><trkpt lat="45.65549153845725" lon="3.06575226731929"><ele>612.4</ele><time>2026-04-19T16:03:12.999Z</time></trkpt><trkpt lat="45.65548541999011" lon="3.0658485312093458"><ele>610.8</ele><time>2026-04-19T16:03:13.999Z</time></trkpt><trkpt lat="45.65547838911248" lon="3.0659479009250963"><ele>609.2</ele><time>2026-04-19T16:03:14.999Z</time></trkpt><trkpt lat="45.65546329054918" lon="3.0660550089526137"><ele>607.6</ele><time>2026-04-19T16:03:15.999Z</time></trkpt><trkpt lat="45.65543556593602" lon="3.066228330264299"><ele>606.0</ele><time>2026-04-19T16:03:17.999Z</time></trkpt><trkpt lat="45.65539578390943" lon="3.0663910546261444"><ele>606.0</ele><time>2026-04-19T16:03:19.999Z</time></trkpt><trkpt lat="45.65537902755885" lon="3.0664836166406406"><ele>606.0</ele><time>2026-04-19T16:03:20.999Z</time></trkpt><trkpt lat="45.655367955799264" lon="3.06657623458479"><ele>606.0</ele><time>2026-04-19T16:03:21.999Z</time></trkpt><trkpt lat="45.655355275301936" lon="3.066675685463458"><ele>606.0</ele><time>2026-04-19T16:03:22.999Z</time></trkpt><trkpt lat="45.655346113242445" lon="3.066779205023502"><ele>606.0</ele><time>2026-04-19T16:03:23.999Z</time></trkpt><trkpt lat="45.655340033209455" lon="3.0668807169918146"><ele>606.0</ele><time>2026-04-19T16:03:24.999Z</time></trkpt><trkpt lat="45.65534490975536" lon="3.0670576919503216"><ele>603.8</ele><time>2026-04-19T16:03:26.999Z</time></trkpt><trkpt lat="45.65537742685822" lon="3.067222400193784"><ele>601.6</ele><time>2026-04-19T16:03:28.999Z</time></trkpt><trkpt lat="45.65542882086658" lon="3.0673797371538227"><ele>599.4</ele><time>2026-04-19T16:03:30.999Z</time></trkpt><trkpt lat="45.65546529523046" lon="3.067453202927578"><ele>597.2</ele><time>2026-04-19T16:03:31.999Z</time></trkpt><trkpt lat="45.655504140195085" lon="3.0675368360585598"><ele>595.0</ele><time>2026-04-19T16:03:32.999Z</time></trkpt><trkpt lat="45.65555015278912" lon="3.067675073764459"><ele>593.4</ele><time>2026-04-19T16:03:34.999Z</time></trkpt><trkpt lat="45.655594574365836" lon="3.0677845554953245"><ele>591.8</ele><time>2026-04-19T16:03:36.999Z</time></trkpt><trkpt lat="45.65569693452156" lon="3.0678492306545655"><ele>590.2</ele><time>2026-04-19T16:03:38.999Z</time></trkpt><trkpt lat="45.655761168371754" lon="3.0678770842849383"><ele>588.6</ele><time>2026-04-19T16:03:39.999Z</time></trkpt><trkpt lat="45.655893768598744" lon="3.0679501356264853"><ele>587.0</ele><time>2026-04-19T16:03:42Z</time></trkpt><trkpt lat="45.65602133587371" lon="3.0680496153988837"><ele>587.0</ele><time>2026-04-19T16:03:44Z</time></trkpt><trkpt lat="45.65609648256953" lon="3.0680844522918536"><ele>587.0</ele><time>2026-04-19T16:03:45Z</time></trkpt><trkpt lat="45.656168420537675" lon="3.0681198974607127"><ele>587.0</ele><time>2026-04-19T16:03:46Z</time></trkpt><trkpt lat="45.65624648546469" lon="3.068159461335849"><ele>587.0</ele><time>2026-04-19T16:03:47Z</time></trkpt><trkpt lat="45.656328489437854" lon="3.068199909353128"><ele>587.0</ele><time>2026-04-19T16:03:48Z</time></trkpt><trkpt lat="45.65640442342345" lon="3.0682379624076392"><ele>587.0</ele><time>2026-04-19T16:03:49Z</time></trkpt><trkpt lat="45.65647949691071" lon="3.0682702863114706"><ele>585.8333333333333</ele><time>2026-04-19T16:03:50Z</time></trkpt><trkpt lat="45.65655726618734" lon="3.0683075232582078"><ele>584.6666666666666</ele><time>2026-04-19T16:03:51Z</time></trkpt><trkpt lat="45.65662803631516" lon="3.068352838279927"><ele>583.5</ele><time>2026-04-19T16:03:52Z</time></trkpt><trkpt lat="45.656703434163795" lon="3.0683958352384457"><ele>582.3333333333334</ele><time>2026-04-19T16:03:53Z</time></trkpt><trkpt lat="45.656776821171846" lon="3.0684403548634847"><ele>581.1666666666667</ele><time>2026-04-19T16:03:54Z</time></trkpt><trkpt lat="45.656850792374804" lon="3.068482779791972"><ele>580.0</ele><time>2026-04-19T16:03:55Z</time></trkpt><trkpt lat="45.656919676374315" lon="3.0685312401338325"><ele>580.5714285714286</ele><time>2026-04-19T16:03:56Z</time></trkpt><trkpt lat="45.65698755855808" lon="3.0685834633483893"><ele>581.1428571428572</ele><time>2026-04-19T16:03:57Z</time></trkpt><trkpt lat="45.6570507829974" lon="3.068637495644804"><ele>581.7142857142858</ele><time>2026-04-19T16:03:58Z</time></trkpt><trkpt lat="45.65710739684739" lon="3.068702763306782"><ele>582.2857142857143</ele><time>2026-04-19T16:03:59Z</time></trkpt><trkpt lat="45.657162344514795" lon="3.068771416994524"><ele>582.8571428571429</ele><time>2026-04-19T16:04:00Z</time></trkpt><trkpt lat="45.65721059182763" lon="3.0688364188081154"><ele>583.4285714285714</ele><time>2026-04-19T16:04:01Z</time></trkpt><trkpt lat="45.65725552729154" lon="3.0689066768359483"><ele>584.0</ele><time>2026-04-19T16:04:02Z</time></trkpt><trkpt lat="45.65728999999692" lon="3.068983378237969"><ele>584.0</ele><time>2026-04-19T16:04:03Z</time></trkpt><trkpt lat="45.65733693858067" lon="3.0691348893124437"><ele>584.0</ele><time>2026-04-19T16:04:05Z</time></trkpt><trkpt lat="45.65737576911721" lon="3.0692781724882594"><ele>584.0</ele><time>2026-04-19T16:04:07Z</time></trkpt><trkpt lat="45.657432418029806" lon="3.0694013663404602"><ele>584.0</ele><time>2026-04-19T16:04:09Z</time></trkpt><trkpt lat="45.65747359348929" lon="3.0695183154076693"><ele>584.0</ele><time>2026-04-19T16:04:11Z</time></trkpt><trkpt lat="45.657529239562116" lon="3.0696403676112562"><ele>584.0</ele><time>2026-04-19T16:04:13Z</time></trkpt><trkpt lat="45.6575757879262" lon="3.0697021009876"><ele>584.0</ele><time>2026-04-19T16:04:14Z</time></trkpt><trkpt lat="45.6576583890058" lon="3.069803613439033"><ele>584.0</ele><time>2026-04-19T16:04:16Z</time></trkpt><trkpt lat="45.657738713144894" lon="3.0698679899702777"><ele>584.0</ele><time>2026-04-19T16:04:18Z</time></trkpt><trkpt lat="45.65784085951648" lon="3.0699286206695064"><ele>584.0</ele><time>2026-04-19T16:04:20Z</time></trkpt><trkpt lat="45.65790007684237" lon="3.0700228300064607"><ele>583.0</ele><time>2026-04-19T16:04:22Z</time></trkpt><trkpt lat="45.65791426269545" lon="3.0701441308310007"><ele>582.0</ele><time>2026-04-19T16:04:24Z</time></trkpt><trkpt lat="45.65792196819503" lon="3.070264246663633"><ele>581.0</ele><time>2026-04-19T16:04:26Z</time></trkpt><trkpt lat="45.657930253953005" lon="3.070393416839705"><ele>580.0</ele><time>2026-04-19T16:04:28Z</time></trkpt><trkpt lat="45.657946761112804" lon="3.0705289947001773"><ele>579.0</ele><time>2026-04-19T16:04:30Z</time></trkpt><trkpt lat="45.65799133159841" lon="3.070651231399084"><ele>579.0</ele><time>2026-04-19T16:04:32Z</time></trkpt><trkpt lat="45.658042927431005" lon="3.070752393520935"><ele>579.0</ele><time>2026-04-19T16:04:34Z</time></trkpt><trkpt lat="45.658097073485216" lon="3.070844456058741"><ele>579.0</ele><time>2026-04-19T16:04:36Z</time></trkpt><trkpt lat="45.65815783697223" lon="3.070946372172907"><ele>579.0</ele><time>2026-04-19T16:04:38Z</time></trkpt><trkpt lat="45.65822906385995" lon="3.071075188789648"><ele>579.0</ele><time>2026-04-19T16:04:40Z</time></trkpt><trkpt lat="45.65826364568082" lon="3.071163408460355"><ele>578.5714285714286</ele><time>2026-04-19T16:04:41Z</time></trkpt><trkpt lat="45.65827417239974" lon="3.0712646590201462"><ele>578.1428571428571</ele><time>2026-04-19T16:04:42Z</time></trkpt><trkpt lat="45.65828851898761" lon="3.071360416333828"><ele>577.7142857142858</ele><time>2026-04-19T16:04:43Z</time></trkpt><trkpt lat="45.65830540544787" lon="3.0714559050368537"><ele>577.2857142857142</ele><time>2026-04-19T16:04:44Z</time></trkpt><trkpt lat="45.658325126684005" lon="3.0715498690530616"><ele>576.8571428571429</ele><time>2026-04-19T16:04:45Z</time></trkpt><trkpt lat="45.658356740833625" lon="3.071640196719975"><ele>576.4285714285714</ele><time>2026-04-19T16:04:46Z</time></trkpt><trkpt lat="45.658387354054945" lon="3.0717344060681073"><ele>576.0</ele><time>2026-04-19T16:04:46.999Z</time></trkpt><trkpt lat="45.658409497713286" lon="3.071824153638328"><ele>575.8</ele><time>2026-04-19T16:04:47.999Z</time></trkpt><trkpt lat="45.65846622929682" lon="3.0718865805387088"><ele>575.6</ele><time>2026-04-19T16:04:48.999Z</time></trkpt><trkpt lat="45.65851588413823" lon="3.071956102997223"><ele>575.4</ele><time>2026-04-19T16:04:49.999Z</time></trkpt><trkpt lat="45.658605693644695" lon="3.0720827904898997"><ele>575.2</ele><time>2026-04-19T16:04:51.999Z</time></trkpt><trkpt lat="45.6586288518014" lon="3.0722811723289447"><ele>575.0</ele><time>2026-04-19T16:04:53.999Z</time></trkpt><trkpt lat="45.658702082646165" lon="3.0723799711772246"><ele>575.0</ele><time>2026-04-19T16:04:55.999Z</time></trkpt><trkpt lat="45.65878078439007" lon="3.0724575690395164"><ele>575.0</ele><time>2026-04-19T16:04:57.999Z</time></trkpt><trkpt lat="45.65884615366529" lon="3.0725687281043674"><ele>575.0</ele><time>2026-04-19T16:04:59.999Z</time></trkpt><trkpt lat="45.65891665706899" lon="3.0726663749018592"><ele>575.0</ele><time>2026-04-19T16:05:01.999Z</time></trkpt><trkpt lat="45.658987899279296" lon="3.072757862237382"><ele>575.0</ele><time>2026-04-19T16:05:03.999Z</time></trkpt><trkpt lat="45.65905621091459" lon="3.0728705445226274"><ele>575.0</ele><time>2026-04-19T16:05:05.999Z</time></trkpt><trkpt lat="45.659105396783126" lon="3.0730067143246265"><ele>575.0</ele><time>2026-04-19T16:05:07.999Z</time></trkpt><trkpt lat="45.65911879542649" lon="3.0731380044459096"><ele>575.0</ele><time>2026-04-19T16:05:09.999Z</time></trkpt><trkpt lat="45.65914314098476" lon="3.0732720164866327"><ele>575.0</ele><time>2026-04-19T16:05:11.999Z</time></trkpt><trkpt lat="45.65918414221082" lon="3.0734222881236817"><ele>575.0</ele><time>2026-04-19T16:05:13.999Z</time></trkpt><trkpt lat="45.65924504462859" lon="3.0735688934024528"><ele>574.6</ele><time>2026-04-19T16:05:15.999Z</time></trkpt><trkpt lat="45.65931806405045" lon="3.073706478982927"><ele>574.2</ele><time>2026-04-19T16:05:17.999Z</time></trkpt><trkpt lat="45.65935681321633" lon="3.07377896900474"><ele>573.8</ele><time>2026-04-19T16:05:18.999Z</time></trkpt><trkpt lat="45.6594346153496" lon="3.0739290788893427"><ele>573.4</ele><time>2026-04-19T16:05:20.999Z</time></trkpt><trkpt lat="45.659477023026135" lon="3.0740075999518397"><ele>573.0</ele><time>2026-04-19T16:05:21.999Z</time></trkpt><trkpt lat="45.659526408958946" lon="3.0740948641670953"><ele>572.0</ele><time>2026-04-19T16:05:22.999Z</time></trkpt><trkpt lat="45.65959497888331" lon="3.0741671341041994"><ele>571.0</ele><time>2026-04-19T16:05:23.999Z</time></trkpt><trkpt lat="45.65964725936076" lon="3.0742602971055355"><ele>570.0</ele><time>2026-04-19T16:05:24.999Z</time></trkpt><trkpt lat="45.65970162854932" lon="3.0743535403953137"><ele>569.0</ele><time>2026-04-19T16:05:25.999Z</time></trkpt><trkpt lat="45.65975411432186" lon="3.0744460676054075"><ele>568.0</ele><time>2026-04-19T16:05:26.999Z</time></trkpt><trkpt lat="45.65979494891412" lon="3.0745468973797356"><ele>567.0</ele><time>2026-04-19T16:05:27.999Z</time></trkpt><trkpt lat="45.65982927232022" lon="3.074651759807865"><ele>567.0</ele><time>2026-04-19T16:05:28.999Z</time></trkpt><trkpt lat="45.659864350982104" lon="3.0747522002735153"><ele>567.0</ele><time>2026-04-19T16:05:29.999Z</time></trkpt><trkpt lat="45.6599019854823" lon="3.0748573567028545"><ele>567.0</ele><time>2026-04-19T16:05:30.999Z</time></trkpt><trkpt lat="45.659933230650246" lon="3.074965872791866"><ele>567.0</ele><time>2026-04-19T16:05:31.999Z</time></trkpt><trkpt lat="45.65997732724272" lon="3.0750557914789636"><ele>567.0</ele><time>2026-04-19T16:05:32.999Z</time></trkpt><trkpt lat="45.66002148419458" lon="3.0751335559028887"><ele>567.0</ele><time>2026-04-19T16:05:33.999Z</time></trkpt><trkpt lat="45.660085707834575" lon="3.0752528323579282"><ele>566.8000000000001</ele><time>2026-04-19T16:05:35.999Z</time></trkpt><trkpt lat="45.66013152900337" lon="3.075316521693993"><ele>566.6</ele><time>2026-04-19T16:05:37.999Z</time></trkpt><trkpt lat="45.66018569906766" lon="3.0754062636420185"><ele>566.4000000000001</ele><time>2026-04-19T16:05:39.999Z</time></trkpt><trkpt lat="45.660267113025974" lon="3.075487913949202"><ele>566.2</ele><time>2026-04-19T16:05:41.999Z</time></trkpt><trkpt lat="45.66037146384327" lon="3.0755291492610852"><ele>566.0</ele><time>2026-04-19T16:05:43.999Z</time></trkpt><trkpt lat="45.66048079654711" lon="3.0755560322742688"><ele>566.0</ele><time>2026-04-19T16:05:46Z</time></trkpt><trkpt lat="45.660583623311204" lon="3.0755483684717335"><ele>566.0</ele><time>2026-04-19T16:05:48Z</time></trkpt><trkpt lat="45.660646432335284" lon="3.0755778767861144"><ele>566.0</ele><time>2026-04-19T16:05:51Z</time></trkpt><trkpt lat="45.66065097563996" lon="3.0758353446091125"><ele>566.0</ele><time>2026-04-19T16:05:52Z</time></trkpt><trkpt lat="45.66066940059318" lon="3.075981820622372"><ele>565.6</ele><time>2026-04-19T16:05:54Z</time></trkpt><trkpt lat="45.66069482270227" lon="3.0761203571916664"><ele>565.2</ele><time>2026-04-19T16:05:56Z</time></trkpt><trkpt lat="45.66071227053089" lon="3.0762516799236233"><ele>564.8</ele><time>2026-04-19T16:05:58Z</time></trkpt><trkpt lat="45.660734917247055" lon="3.0763921509937693"><ele>564.4</ele><time>2026-04-19T16:06:00Z</time></trkpt><trkpt lat="45.660760939877996" lon="3.0765165873190736"><ele>564.0</ele><time>2026-04-19T16:06:02Z</time></trkpt><trkpt lat="45.66081819083967" lon="3.0766297698071994"><ele>564.0</ele><time>2026-04-19T16:06:04Z</time></trkpt><trkpt lat="45.660864146483334" lon="3.0767254726734206"><ele>564.0</ele><time>2026-04-19T16:06:06Z</time></trkpt><trkpt lat="45.66092392604039" lon="3.076857278466509"><ele>564.0</ele><time>2026-04-19T16:06:08Z</time></trkpt><trkpt lat="45.66099570782378" lon="3.0769824120469713"><ele>564.0</ele><time>2026-04-19T16:06:10Z</time></trkpt><trkpt lat="45.66103462043229" lon="3.0770679627430813"><ele>564.0</ele><time>2026-04-19T16:06:11Z</time></trkpt><trkpt lat="45.66107119564879" lon="3.077149528969821"><ele>564.0</ele><time>2026-04-19T16:06:12Z</time></trkpt><trkpt lat="45.66111270883704" lon="3.0772414906155894"><ele>564.0</ele><time>2026-04-19T16:06:13Z</time></trkpt><trkpt lat="45.661153711658336" lon="3.0773449546981397"><ele>564.0</ele><time>2026-04-19T16:06:14Z</time></trkpt><trkpt lat="45.66119419263191" lon="3.077502521036943"><ele>564.0</ele><time>2026-04-19T16:06:16Z</time></trkpt><trkpt lat="45.661211076810254" lon="3.0776380302322335"><ele>564.0</ele><time>2026-04-19T16:06:18Z</time></trkpt><trkpt lat="45.66122840646885" lon="3.077810867000398"><ele>564.0</ele><time>2026-04-19T16:06:20Z</time></trkpt><trkpt lat="45.66122794064609" lon="3.077902858918436"><ele>563.2</ele><time>2026-04-19T16:06:21Z</time></trkpt><trkpt lat="45.661204565419155" lon="3.078036122648961"><ele>562.4</ele><time>2026-04-19T16:06:23Z</time></trkpt><trkpt lat="45.66113098270613" lon="3.0781521689080935"><ele>561.6</ele><time>2026-04-19T16:06:25Z</time></trkpt><trkpt lat="45.66109773548416" lon="3.078231127065615"><ele>560.8</ele><time>2026-04-19T16:06:26Z</time></trkpt><trkpt lat="45.661087509100604" lon="3.0783229887562107"><ele>560.0</ele><time>2026-04-19T16:06:27Z</time></trkpt><trkpt lat="45.66108903499495" lon="3.0784880215681434"><ele>557.6</ele><time>2026-04-19T16:06:29Z</time></trkpt><trkpt lat="45.661082990285735" lon="3.0786419617994327"><ele>555.2</ele><time>2026-04-19T16:06:31Z</time></trkpt><trkpt lat="45.66109394110853" lon="3.078783731108631"><ele>552.8</ele><time>2026-04-19T16:06:33Z</time></trkpt><trkpt lat="45.661107431307975" lon="3.078925441730978"><ele>550.4</ele><time>2026-04-19T16:06:35Z</time></trkpt><trkpt lat="45.66112152226772" lon="3.079068886222339"><ele>548.0</ele><time>2026-04-19T16:06:37Z</time></trkpt><trkpt lat="45.661146953913935" lon="3.0792134305598022"><ele>546.1999999999999</ele><time>2026-04-19T16:06:39Z</time></trkpt><trkpt lat="45.66117235315471" lon="3.0793708442650605"><ele>544.4</ele><time>2026-04-19T16:06:41Z</time></trkpt><trkpt lat="45.66120435379629" lon="3.0795480947468943"><ele>542.5999999999999</ele><time>2026-04-19T16:06:43Z</time></trkpt><trkpt lat="45.66122969029252" lon="3.0796543076662135"><ele>540.8</ele><time>2026-04-19T16:06:44Z</time></trkpt><trkpt lat="45.66125733320697" lon="3.0797517390947897"><ele>539.0</ele><time>2026-04-19T16:06:45Z</time></trkpt><trkpt lat="45.66128170420332" lon="3.079845088535583"><ele>538.5714285714286</ele><time>2026-04-19T16:06:46Z</time></trkpt><trkpt lat="45.661303232541776" lon="3.0799371140546623"><ele>538.1428571428571</ele><time>2026-04-19T16:06:47Z</time></trkpt><trkpt lat="45.6613227032507" lon="3.0800437464983412"><ele>537.7142857142858</ele><time>2026-04-19T16:06:48Z</time></trkpt><trkpt lat="45.661330085664765" lon="3.0801474077870137"><ele>537.2857142857142</ele><time>2026-04-19T16:06:49Z</time></trkpt><trkpt lat="45.66132244359819" lon="3.080248368192794"><ele>536.8571428571429</ele><time>2026-04-19T16:06:50Z</time></trkpt><trkpt lat="45.66132363416294" lon="3.0803565267081274"><ele>536.4285714285714</ele><time>2026-04-19T16:06:51Z</time></trkpt><trkpt lat="45.66133279126983" lon="3.080465275944711"><ele>536.0</ele><time>2026-04-19T16:06:52Z</time></trkpt><trkpt lat="45.6613623075174" lon="3.0805750848471947"><ele>536.0</ele><time>2026-04-19T16:06:53Z</time></trkpt><trkpt lat="45.661394583799" lon="3.0806781285341134"><ele>536.0</ele><time>2026-04-19T16:06:54Z</time></trkpt><trkpt lat="45.66142721985596" lon="3.0807871825824322"><ele>536.0</ele><time>2026-04-19T16:06:55Z</time></trkpt><trkpt lat="45.661466470837546" lon="3.08088396921001"><ele>536.0</ele><time>2026-04-19T16:06:56Z</time></trkpt><trkpt lat="45.661494666910095" lon="3.0809976678656574"><ele>536.0</ele><time>2026-04-19T16:06:57Z</time></trkpt><trkpt lat="45.661563850878544" lon="3.0810688477501196"><ele>536.0</ele><time>2026-04-19T16:06:58Z</time></trkpt><trkpt lat="45.66161841468246" lon="3.0811528441743405"><ele>536.0</ele><time>2026-04-19T16:06:59Z</time></trkpt><trkpt lat="45.66166496487892" lon="3.081238512620797"><ele>536.0</ele><time>2026-04-19T16:07:00Z</time></trkpt><trkpt lat="45.66169957515125" lon="3.0813334985120293"><ele>536.0</ele><time>2026-04-19T16:07:00.999Z</time></trkpt><trkpt lat="45.66173795007476" lon="3.081426090509719"><ele>536.0</ele><time>2026-04-19T16:07:01.999Z</time></trkpt><trkpt lat="45.66176296043005" lon="3.0815278898173513"><ele>536.0</ele><time>2026-04-19T16:07:02.999Z</time></trkpt><trkpt lat="45.66177916123692" lon="3.081639609837584"><ele>536.0</ele><time>2026-04-19T16:07:03.999Z</time></trkpt><trkpt lat="45.661802006944484" lon="3.0817370114889937"><ele>535.4</ele><time>2026-04-19T16:07:04.999Z</time></trkpt><trkpt lat="45.661819582673246" lon="3.0818286192438715"><ele>534.8</ele><time>2026-04-19T16:07:05.999Z</time></trkpt><trkpt lat="45.661837712440864" lon="3.081915709480641"><ele>534.1999999999999</ele><time>2026-04-19T16:07:06.999Z</time></trkpt><trkpt lat="45.661842170783096" lon="3.0820843982931874"><ele>533.6</ele><time>2026-04-19T16:07:08.999Z</time></trkpt><trkpt lat="45.661845373112705" lon="3.0822456576996666"><ele>533.0</ele><time>2026-04-19T16:07:10.999Z</time></trkpt><trkpt lat="45.66183252241399" lon="3.082414904413128"><ele>533.0</ele><time>2026-04-19T16:07:12.999Z</time></trkpt><trkpt lat="45.661857197315115" lon="3.082576801247711"><ele>533.0</ele><time>2026-04-19T16:07:14.999Z</time></trkpt><trkpt lat="45.66187863911955" lon="3.082733592346277"><ele>533.0</ele><time>2026-04-19T16:07:16.999Z</time></trkpt><trkpt lat="45.66190388481801" lon="3.082890318028428"><ele>533.0</ele><time>2026-04-19T16:07:18.999Z</time></trkpt><trkpt lat="45.661904675484195" lon="3.0830457710561605"><ele>533.0</ele><time>2026-04-19T16:07:20.999Z</time></trkpt><trkpt lat="45.661893833974204" lon="3.0832041456658397"><ele>532.6666666666666</ele><time>2026-04-19T16:07:22.999Z</time></trkpt><trkpt lat="45.6618493149196" lon="3.0833382049033267"><ele>532.3333333333333</ele><time>2026-04-19T16:07:24.999Z</time></trkpt><trkpt lat="45.66179271074249" lon="3.083483013686107"><ele>532.0</ele><time>2026-04-19T16:07:26.999Z</time></trkpt><trkpt lat="45.66176526759123" lon="3.083564496910174"><ele>531.6666666666666</ele><time>2026-04-19T16:07:27.999Z</time></trkpt><trkpt lat="45.66174999442265" lon="3.083656616166416"><ele>531.3333333333334</ele><time>2026-04-19T16:07:28.999Z</time></trkpt><trkpt lat="45.66174444938513" lon="3.0837549874202344"><ele>531.0</ele><time>2026-04-19T16:07:29.999Z</time></trkpt><trkpt lat="45.66174980535394" lon="3.083855408612743"><ele>531.0</ele><time>2026-04-19T16:07:30.999Z</time></trkpt><trkpt lat="45.661768259551806" lon="3.083962906358204"><ele>531.0</ele><time>2026-04-19T16:07:31.999Z</time></trkpt><trkpt lat="45.66179529477644" lon="3.0840766029570745"><ele>531.0</ele><time>2026-04-19T16:07:32.999Z</time></trkpt><trkpt lat="45.66182742298893" lon="3.0841832232872424"><ele>531.0</ele><time>2026-04-19T16:07:33.999Z</time></trkpt><trkpt lat="45.66186411316853" lon="3.084290961748984"><ele>531.0</ele><time>2026-04-19T16:07:34.999Z</time></trkpt><trkpt lat="45.661903684715725" lon="3.084400351190372"><ele>531.0</ele><time>2026-04-19T16:07:35.999Z</time></trkpt><trkpt lat="45.661943043517034" lon="3.0845023777516114"><ele>530.0</ele><time>2026-04-19T16:07:36.999Z</time></trkpt><trkpt lat="45.661982107109324" lon="3.084609383219349"><ele>529.0</ele><time>2026-04-19T16:07:37.999Z</time></trkpt><trkpt lat="45.662020288432544" lon="3.084712951640104"><ele>528.0</ele><time>2026-04-19T16:07:38.999Z</time></trkpt><trkpt lat="45.66204239134081" lon="3.0848301545984844"><ele>527.0</ele><time>2026-04-19T16:07:39.999Z</time></trkpt><trkpt lat="45.6620826546055" lon="3.0849243651695164"><ele>526.0</ele><time>2026-04-19T16:07:40.999Z</time></trkpt><trkpt lat="45.66208758450806" lon="3.085035968478325"><ele>525.0</ele><time>2026-04-19T16:07:41.999Z</time></trkpt><trkpt lat="45.662100408929874" lon="3.0851385489174286"><ele>525.0</ele><time>2026-04-19T16:07:42.999Z</time></trkpt><trkpt lat="45.662111474374036" lon="3.0852412068291097"><ele>525.0</ele><time>2026-04-19T16:07:43.999Z</time></trkpt><trkpt lat="45.66212024253595" lon="3.0853426765606455"><ele>525.0</ele><time>2026-04-19T16:07:44.999Z</time></trkpt><trkpt lat="45.66212426689913" lon="3.0854408815634455"><ele>525.0</ele><time>2026-04-19T16:07:45.999Z</time></trkpt><trkpt lat="45.662124256404205" lon="3.0855381352119244"><ele>525.0</ele><time>2026-04-19T16:07:46.999Z</time></trkpt><trkpt lat="45.662113225755576" lon="3.08563164264383"><ele>525.0</ele><time>2026-04-19T16:07:47.999Z</time></trkpt><trkpt lat="45.662101026109944" lon="3.0857318268917755"><ele>525.0</ele><time>2026-04-19T16:07:48.999Z</time></trkpt><trkpt lat="45.6620725908632" lon="3.0858174849523388"><ele>524.7142857142857</ele><time>2026-04-19T16:07:49.999Z</time></trkpt><trkpt lat="45.66204591606683" lon="3.0859138803497235"><ele>524.4285714285714</ele><time>2026-04-19T16:07:50.999Z</time></trkpt><trkpt lat="45.66201983606057" lon="3.0860068132907834"><ele>524.1428571428571</ele><time>2026-04-19T16:07:52Z</time></trkpt><trkpt lat="45.66199212809087" lon="3.086088670847108"><ele>523.8571428571429</ele><time>2026-04-19T16:07:53Z</time></trkpt><trkpt lat="45.661973730868645" lon="3.086184975317452"><ele>523.5714285714286</ele><time>2026-04-19T16:07:54Z</time></trkpt><trkpt lat="45.66194081069182" lon="3.086269099910885"><ele>523.2857142857142</ele><time>2026-04-19T16:07:55Z</time></trkpt><trkpt lat="45.661908925112506" lon="3.0863601747764435"><ele>523.0</ele><time>2026-04-19T16:07:56Z</time></trkpt><trkpt lat="45.661887562831545" lon="3.0864589644667357"><ele>523.0</ele><time>2026-04-19T16:07:57Z</time></trkpt><trkpt lat="45.6618479382339" lon="3.0865522074244947"><ele>523.0</ele><time>2026-04-19T16:07:58Z</time></trkpt><trkpt lat="45.6618205935972" lon="3.086656663717219"><ele>523.0</ele><time>2026-04-19T16:07:59Z</time></trkpt><trkpt lat="45.66179499134774" lon="3.086754464381848"><ele>523.0</ele><time>2026-04-19T16:08:00Z</time></trkpt><trkpt lat="45.66176800820946" lon="3.0868575400139764"><ele>523.0</ele><time>2026-04-19T16:08:01Z</time></trkpt><trkpt lat="45.66174224432098" lon="3.086954701267934"><ele>523.0</ele><time>2026-04-19T16:08:02Z</time></trkpt><trkpt lat="45.66171520148357" lon="3.087054604824492"><ele>522.5</ele><time>2026-04-19T16:08:03Z</time></trkpt><trkpt lat="45.66168855294812" lon="3.0871530519642683"><ele>522.0</ele><time>2026-04-19T16:08:04Z</time></trkpt><trkpt lat="45.66166140943157" lon="3.087245243971423"><ele>521.5</ele><time>2026-04-19T16:08:05Z</time></trkpt><trkpt lat="45.66164072290259" lon="3.087355537872362"><ele>521.0</ele><time>2026-04-19T16:08:06Z</time></trkpt><trkpt lat="45.66160582506546" lon="3.087459341029108"><ele>520.5</ele><time>2026-04-19T16:08:07Z</time></trkpt><trkpt lat="45.661574492257834" lon="3.087564188148916"><ele>520.0</ele><time>2026-04-19T16:08:08Z</time></trkpt><trkpt lat="45.661543051108325" lon="3.087661328493182"><ele>519.6666666666667</ele><time>2026-04-19T16:08:09Z</time></trkpt><trkpt lat="45.661510829328854" lon="3.087750688533497"><ele>519.3333333333334</ele><time>2026-04-19T16:08:10Z</time></trkpt><trkpt lat="45.66148499945917" lon="3.0878477198242402"><ele>519.0</ele><time>2026-04-19T16:08:11Z</time></trkpt><trkpt lat="45.6614673553446" lon="3.0879376699991132"><ele>518.6666666666666</ele><time>2026-04-19T16:08:12Z</time></trkpt><trkpt lat="45.66141928672363" lon="3.0880956274714313"><ele>518.3333333333333</ele><time>2026-04-19T16:08:14Z</time></trkpt><trkpt lat="45.66141300051897" lon="3.088193453396858"><ele>518.0</ele><time>2026-04-19T16:08:15Z</time></trkpt><trkpt lat="45.661394565465905" lon="3.08828429784849"><ele>517.25</ele><time>2026-04-19T16:08:16Z</time></trkpt><trkpt lat="45.66135378530327" lon="3.088450631929355"><ele>516.5</ele><time>2026-04-19T16:08:18Z</time></trkpt><trkpt lat="45.66130478099009" lon="3.0885861143957594"><ele>515.75</ele><time>2026-04-19T16:08:20Z</time></trkpt><trkpt lat="45.661258216124466" lon="3.08870031920705"><ele>515.0</ele><time>2026-04-19T16:08:22Z</time></trkpt><trkpt lat="45.6613396621827" lon="3.088908678235471"><ele>515.0</ele><time>2026-04-19T16:08:25Z</time></trkpt><trkpt lat="45.661398524548794" lon="3.0889831570054747"><ele>515.0</ele><time>2026-04-19T16:08:27Z</time></trkpt><trkpt lat="45.66146280498667" lon="3.089064607023417"><ele>515.0</ele><time>2026-04-19T16:08:29Z</time></trkpt><trkpt lat="45.661530886409516" lon="3.089146895900185"><ele>515.0</ele><time>2026-04-19T16:08:31Z</time></trkpt><trkpt lat="45.66160114813213" lon="3.08923194417901"><ele>515.0</ele><time>2026-04-19T16:08:33Z</time></trkpt><trkpt lat="45.661688040926535" lon="3.089306448083122"><ele>515.0</ele><time>2026-04-19T16:08:35Z</time></trkpt><trkpt lat="45.66176276454964" lon="3.0894015197286784"><ele>514.8</ele><time>2026-04-19T16:08:37Z</time></trkpt><trkpt lat="45.66183266880265" lon="3.089517522087178"><ele>514.6</ele><time>2026-04-19T16:08:39Z</time></trkpt><trkpt lat="45.6619205409375" lon="3.0896088694071135"><ele>514.4</ele><time>2026-04-19T16:08:41Z</time></trkpt><trkpt lat="45.66200001867818" lon="3.089714850191958"><ele>514.2</ele><time>2026-04-19T16:08:43Z</time></trkpt><trkpt lat="45.66208085588961" lon="3.089812430136958"><ele>514.0</ele><time>2026-04-19T16:08:45Z</time></trkpt><trkpt lat="45.662157392615384" lon="3.0899076265148144"><ele>514.4</ele><time>2026-04-19T16:08:47Z</time></trkpt><trkpt lat="45.662228747204054" lon="3.0900063399157323"><ele>514.8</ele><time>2026-04-19T16:08:49Z</time></trkpt><trkpt lat="45.66230201563841" lon="3.090098538275882"><ele>515.2</ele><time>2026-04-19T16:08:51Z</time></trkpt><trkpt lat="45.662381002399954" lon="3.0901800250396496"><ele>515.6</ele><time>2026-04-19T16:08:53Z</time></trkpt><trkpt lat="45.662462586940926" lon="3.0902657883185163"><ele>516.0</ele><time>2026-04-19T16:08:55Z</time></trkpt><trkpt lat="45.662538283256595" lon="3.090343917161762"><ele>516.0</ele><time>2026-04-19T16:08:56.999Z</time></trkpt><trkpt lat="45.66261551844441" lon="3.090418805681714"><ele>516.0</ele><time>2026-04-19T16:08:58.999Z</time></trkpt><trkpt lat="45.6626946646958" lon="3.0904967890288213"><ele>516.0</ele><time>2026-04-19T16:09:00.999Z</time></trkpt><trkpt lat="45.66276368553152" lon="3.090592779505925"><ele>516.0</ele><time>2026-04-19T16:09:02.999Z</time></trkpt><trkpt lat="45.66284460989474" lon="3.0906762614792984"><ele>516.0</ele><time>2026-04-19T16:09:04.999Z</time></trkpt><trkpt lat="45.6629318640366" lon="3.0907510592246563"><ele>515.8333333333334</ele><time>2026-04-19T16:09:06.999Z</time></trkpt><trkpt lat="45.663021209019256" lon="3.090844451019972"><ele>515.6666666666666</ele><time>2026-04-19T16:09:08.999Z</time></trkpt><trkpt lat="45.66311051176155" lon="3.090959659471679"><ele>515.5</ele><time>2026-04-19T16:09:10.999Z</time></trkpt><trkpt lat="45.663162471426084" lon="3.0910154098420937"><ele>515.3333333333333</ele><time>2026-04-19T16:09:11.999Z</time></trkpt><trkpt lat="45.66322514003083" lon="3.091054237782299"><ele>515.1666666666666</ele><time>2026-04-19T16:09:12.999Z</time></trkpt><trkpt lat="45.66327617575063" lon="3.0911171352810842"><ele>515.0</ele><time>2026-04-19T16:09:13.999Z</time></trkpt><trkpt lat="45.66332956852663" lon="3.0911796532593647"><ele>515.0</ele><time>2026-04-19T16:09:14.999Z</time></trkpt><trkpt lat="45.663381589729354" lon="3.09123862025703"><ele>515.0</ele><time>2026-04-19T16:09:15.999Z</time></trkpt><trkpt lat="45.66343365636877" lon="3.0912963174771884"><ele>515.0</ele><time>2026-04-19T16:09:16.999Z</time></trkpt><trkpt lat="45.663484685508436" lon="3.0913536355646483"><ele>515.0</ele><time>2026-04-19T16:09:17.999Z</time></trkpt><trkpt lat="45.663582701658505" lon="3.0914590839179272"><ele>515.0</ele><time>2026-04-19T16:09:19.999Z</time></trkpt><trkpt lat="45.66367138298047" lon="3.0915567412839016"><ele>515.0</ele><time>2026-04-19T16:09:21.999Z</time></trkpt><trkpt lat="45.6637374779661" lon="3.091679123173538"><ele>514.3333333333333</ele><time>2026-04-19T16:09:23.999Z</time></trkpt><trkpt lat="45.6638216818293" lon="3.091751697558007"><ele>513.6666666666666</ele><time>2026-04-19T16:09:25.999Z</time></trkpt><trkpt lat="45.663884316791055" lon="3.091729313212451"><ele>513.0</ele><time>2026-04-19T16:09:26.999Z</time></trkpt><trkpt lat="45.66398060558012" lon="3.091754493765997"><ele>512.3333333333334</ele><time>2026-04-19T16:09:28.999Z</time></trkpt><trkpt lat="45.66404303798807" lon="3.091882374442406"><ele>511.6666666666667</ele><time>2026-04-19T16:09:30.999Z</time></trkpt><trkpt lat="45.66402511512943" lon="3.0919803457879493"><ele>511.0</ele><time>2026-04-19T16:09:31.999Z</time></trkpt><trkpt lat="45.664057110601654" lon="3.0921475949889476"><ele>511.0</ele><time>2026-04-19T16:09:33.999Z</time></trkpt><trkpt lat="45.664072964571666" lon="3.092237468267844"><ele>511.0</ele><time>2026-04-19T16:09:34.999Z</time></trkpt><trkpt lat="45.664089616735986" lon="3.0923318669644466"><ele>511.0</ele><time>2026-04-19T16:09:35.999Z</time></trkpt><trkpt lat="45.66410680652206" lon="3.0924244492652324"><ele>511.0</ele><time>2026-04-19T16:09:36.999Z</time></trkpt><trkpt lat="45.664125108502745" lon="3.0925191150984994"><ele>511.0</ele><time>2026-04-19T16:09:37.999Z</time></trkpt><trkpt lat="45.66415906278658" lon="3.092614324208189"><ele>511.0</ele><time>2026-04-19T16:09:38.999Z</time></trkpt><trkpt lat="45.66417368680623" lon="3.092720119170575"><ele>511.0</ele><time>2026-04-19T16:09:39.999Z</time></trkpt><trkpt lat="45.66419210791812" lon="3.0928276643416366"><ele>510.42857142857144</ele><time>2026-04-19T16:09:40.999Z</time></trkpt><trkpt lat="45.66420811285148" lon="3.0929270830855398"><ele>509.8571428571429</ele><time>2026-04-19T16:09:41.999Z</time></trkpt><trkpt lat="45.66422305143718" lon="3.0930262569959748"><ele>509.2857142857143</ele><time>2026-04-19T16:09:42.999Z</time></trkpt><trkpt lat="45.6642368991642" lon="3.093126764293166"><ele>508.7142857142857</ele><time>2026-04-19T16:09:43.999Z</time></trkpt><trkpt lat="45.66425097739506" lon="3.093221562951831"><ele>508.14285714285717</ele><time>2026-04-19T16:09:44.999Z</time></trkpt><trkpt lat="45.66426434559818" lon="3.0933141983612424"><ele>507.57142857142856</ele><time>2026-04-19T16:09:45.999Z</time></trkpt><trkpt lat="45.66427741800157" lon="3.093402460560017"><ele>507.0</ele><time>2026-04-19T16:09:46.999Z</time></trkpt><trkpt lat="45.664304189341394" lon="3.093572895207451"><ele>505.5</ele><time>2026-04-19T16:09:48.999Z</time></trkpt><trkpt lat="45.66432705679051" lon="3.0937283986422233"><ele>504.0</ele><time>2026-04-19T16:09:50.999Z</time></trkpt><trkpt lat="45.664351615089124" lon="3.093881493883132"><ele>502.5</ele><time>2026-04-19T16:09:52.999Z</time></trkpt><trkpt lat="45.66438442937833" lon="3.094038534476077"><ele>501.0</ele><time>2026-04-19T16:09:54.999Z</time></trkpt><trkpt lat="45.66441908689087" lon="3.0941949193222724"><ele>500.5</ele><time>2026-04-19T16:09:56.999Z</time></trkpt><trkpt lat="45.6644519066063" lon="3.0943698369869885"><ele>500.0</ele><time>2026-04-19T16:09:59Z</time></trkpt><trkpt lat="45.66447194997834" lon="3.0944664847228553"><ele>499.5</ele><time>2026-04-19T16:10:00Z</time></trkpt><trkpt lat="45.66449207118285" lon="3.094567902988912"><ele>499.0</ele><time>2026-04-19T16:10:01Z</time></trkpt><trkpt lat="45.664508721870035" lon="3.094676194808655"><ele>498.5</ele><time>2026-04-19T16:10:02Z</time></trkpt><trkpt lat="45.664523493264994" lon="3.0947918279069455"><ele>498.0</ele><time>2026-04-19T16:10:03Z</time></trkpt><trkpt lat="45.66453542539006" lon="3.094910458612374"><ele>497.4</ele><time>2026-04-19T16:10:04Z</time></trkpt><trkpt lat="45.664546517360534" lon="3.095032213992566"><ele>496.79999999999995</ele><time>2026-04-19T16:10:05Z</time></trkpt><trkpt lat="45.66455917929806" lon="3.0951596368583987"><ele>496.2</ele><time>2026-04-19T16:10:06Z</time></trkpt><trkpt lat="45.6645711716913" lon="3.095301359974644"><ele>495.6</ele><time>2026-04-19T16:10:07Z</time></trkpt><trkpt lat="45.664583283461184" lon="3.095451117021342"><ele>495.0</ele><time>2026-04-19T16:10:08Z</time></trkpt><trkpt lat="45.66459140326266" lon="3.0955988628122557"><ele>495.0</ele><time>2026-04-19T16:10:09Z</time></trkpt><trkpt lat="45.66459923896888" lon="3.095730455550495"><ele>495.0</ele><time>2026-04-19T16:10:10Z</time></trkpt><trkpt lat="45.66460973375663" lon="3.095844848822654"><ele>495.0</ele><time>2026-04-19T16:10:11Z</time></trkpt><trkpt lat="45.66461948797166" lon="3.0959517623825716"><ele>495.0</ele><time>2026-04-19T16:10:12Z</time></trkpt><trkpt lat="45.6646252627883" lon="3.096108444580319"><ele>495.0</ele><time>2026-04-19T16:10:14Z</time></trkpt><trkpt lat="45.664617350655085" lon="3.096229500515392"><ele>495.0</ele><time>2026-04-19T16:10:16Z</time></trkpt><trkpt lat="45.66464492351511" lon="3.096372725053427"><ele>494.2</ele><time>2026-04-19T16:10:18Z</time></trkpt><trkpt lat="45.66466420269804" lon="3.096546423030239"><ele>493.4</ele><time>2026-04-19T16:10:20Z</time></trkpt><trkpt lat="45.664680935205865" lon="3.09664370823485"><ele>492.6</ele><time>2026-04-19T16:10:21Z</time></trkpt><trkpt lat="45.66470498227843" lon="3.096751999736437"><ele>491.8</ele><time>2026-04-19T16:10:22Z</time></trkpt><trkpt lat="45.66475106890274" lon="3.0968625486183323"><ele>491.0</ele><time>2026-04-19T16:10:23Z</time></trkpt><trkpt lat="45.66481515082805" lon="3.0969618778089045"><ele>490.20000000000005</ele><time>2026-04-19T16:10:24Z</time></trkpt><trkpt lat="45.66490289206864" lon="3.0970427727911267"><ele>489.40000000000003</ele><time>2026-04-19T16:10:25Z</time></trkpt><trkpt lat="45.664976539167235" lon="3.0971303174291225"><ele>488.6</ele><time>2026-04-19T16:10:26Z</time></trkpt><trkpt lat="45.665064282272745" lon="3.0972031243298916"><ele>487.8</ele><time>2026-04-19T16:10:27Z</time></trkpt><trkpt lat="45.66515025163898" lon="3.09725609137615"><ele>487.0</ele><time>2026-04-19T16:10:28Z</time></trkpt><trkpt lat="45.66523730852916" lon="3.0973215107136274"><ele>486.83333333333337</ele><time>2026-04-19T16:10:29Z</time></trkpt><trkpt lat="45.66531575071298" lon="3.0973962370132235"><ele>486.6666666666667</ele><time>2026-04-19T16:10:30Z</time></trkpt><trkpt lat="45.665395850467654" lon="3.097463641263772"><ele>486.5</ele><time>2026-04-19T16:10:31Z</time></trkpt><trkpt lat="45.66547680258622" lon="3.097525020655787"><ele>486.33333333333337</ele><time>2026-04-19T16:10:32Z</time></trkpt><trkpt lat="45.665544674092665" lon="3.097591744266493"><ele>486.1666666666667</ele><time>2026-04-19T16:10:33Z</time></trkpt><trkpt lat="45.665605943676326" lon="3.097671252444974"><ele>486.0</ele><time>2026-04-19T16:10:34Z</time></trkpt><trkpt lat="45.665640156337396" lon="3.0977660785072616"><ele>485.6</ele><time>2026-04-19T16:10:35Z</time></trkpt><trkpt lat="45.66567116361087" lon="3.097853517314781"><ele>485.20000000000005</ele><time>2026-04-19T16:10:36Z</time></trkpt><trkpt lat="45.66570617504626" lon="3.0980240332359985"><ele>484.79999999999995</ele><time>2026-04-19T16:10:38Z</time></trkpt><trkpt lat="45.665725798739736" lon="3.098111055155329"><ele>484.4</ele><time>2026-04-19T16:10:39Z</time></trkpt><trkpt lat="45.66571354931955" lon="3.09829148103364"><ele>484.0</ele><time>2026-04-19T16:10:41Z</time></trkpt><trkpt lat="45.66571518004194" lon="3.098482001582937"><ele>483.1666666666667</ele><time>2026-04-19T16:10:43Z</time></trkpt><trkpt lat="45.66570205150088" lon="3.098585662699876"><ele>482.33333333333337</ele><time>2026-04-19T16:10:44Z</time></trkpt><trkpt lat="45.66569373195701" lon="3.098686639043343"><ele>481.5</ele><time>2026-04-19T16:10:45Z</time></trkpt><trkpt lat="45.66568713773411" lon="3.0987851310982073"><ele>480.66666666666663</ele><time>2026-04-19T16:10:46Z</time></trkpt><trkpt lat="45.66568551128302" lon="3.0988857312198514"><ele>479.8333333333333</ele><time>2026-04-19T16:10:47Z</time></trkpt><trkpt lat="45.66571973858014" lon="3.0990601146367935"><ele>479.0</ele><time>2026-04-19T16:10:49Z</time></trkpt><trkpt lat="45.6657759392277" lon="3.099132117967823"><ele>478.85714285714283</ele><time>2026-04-19T16:10:49.999Z</time></trkpt><trkpt lat="45.66583700941846" lon="3.0992095904373524"><ele>478.7142857142858</ele><time>2026-04-19T16:10:50.999Z</time></trkpt><trkpt lat="45.66588790307511" lon="3.0992870920342472"><ele>478.5714285714286</ele><time>2026-04-19T16:10:51.999Z</time></trkpt><trkpt lat="45.665937814928846" lon="3.099352032210373"><ele>478.42857142857144</ele><time>2026-04-19T16:10:52.999Z</time></trkpt><trkpt lat="45.66598823430206" lon="3.099414826181549"><ele>478.28571428571433</ele><time>2026-04-19T16:10:53.999Z</time></trkpt><trkpt lat="45.66603147230589" lon="3.0994868131864832"><ele>478.1428571428572</ele><time>2026-04-19T16:10:54.999Z</time></trkpt><trkpt lat="45.666069546823046" lon="3.099559819858393"><ele>478.00000000000006</ele><time>2026-04-19T16:10:55.999Z</time></trkpt><trkpt lat="45.666137526966835" lon="3.099695203727596"><ele>477.00000000000006</ele><time>2026-04-19T16:10:57.999Z</time></trkpt><trkpt lat="45.66618875407289" lon="3.0997819518850456"><ele>476.0</ele><time>2026-04-19T16:10:59.999Z</time></trkpt><trkpt lat="45.666227699716636" lon="3.0998556836781725"><ele>475.0</ele><time>2026-04-19T16:11:03.999Z</time></trkpt><trkpt lat="45.66627243108403" lon="3.0999397056684037"><ele>474.0</ele><time>2026-04-19T16:11:05.999Z</time></trkpt><trkpt lat="45.66631059884068" lon="3.1000271906673063"><ele>473.00000000000006</ele><time>2026-04-19T16:11:07.999Z</time></trkpt><trkpt lat="45.66637161952384" lon="3.100134114428081"><ele>472.0</ele><time>2026-04-19T16:11:09.999Z</time></trkpt><trkpt lat="45.66677282939678" lon="3.099905355790421"><ele>472.0</ele><time>2026-04-19T16:11:11.999Z</time></trkpt><trkpt lat="45.66689246056662" lon="3.099943710575207"><ele>472.00000000000006</ele><time>2026-04-19T16:11:13.999Z</time></trkpt><trkpt lat="45.667022540987965" lon="3.099948158063822"><ele>472.00000000000006</ele><time>2026-04-19T16:11:15.999Z</time></trkpt><trkpt lat="45.667091592740036" lon="3.099961164099286"><ele>472.0</ele><time>2026-04-19T16:11:16.999Z</time></trkpt><trkpt lat="45.667150271694524" lon="3.1000037084922187"><ele>472.0</ele><time>2026-04-19T16:11:17.999Z</time></trkpt><trkpt lat="45.66725900779411" lon="3.1000731665220274"><ele>470.83333333333337</ele><time>2026-04-19T16:11:19.999Z</time></trkpt><trkpt lat="45.667370505834505" lon="3.100072210605489"><ele>469.6666666666667</ele><time>2026-04-19T16:11:21.999Z</time></trkpt><trkpt lat="45.667480292202086" lon="3.1001720545302534"><ele>468.5</ele><time>2026-04-19T16:11:23.999Z</time></trkpt><trkpt lat="45.66754232685264" lon="3.10021478884372"><ele>467.33333333333337</ele><time>2026-04-19T16:11:24.999Z</time></trkpt><trkpt lat="45.66760258000731" lon="3.100252772517328"><ele>466.1666666666667</ele><time>2026-04-19T16:11:25.999Z</time></trkpt><trkpt lat="45.66766018133383" lon="3.1002958113176913"><ele>465.0</ele><time>2026-04-19T16:11:26.999Z</time></trkpt><trkpt lat="45.66772917080422" lon="3.10033573758953"><ele>464.3333333333333</ele><time>2026-04-19T16:11:27.999Z</time></trkpt><trkpt lat="45.667799859031355" lon="3.100386241559963"><ele>463.66666666666663</ele><time>2026-04-19T16:11:28.999Z</time></trkpt><trkpt lat="45.667904657027925" lon="3.1004834257879246"><ele>463.0</ele><time>2026-04-19T16:11:30.999Z</time></trkpt><trkpt lat="45.66796370503546" lon="3.1005273148451584"><ele>462.3333333333333</ele><time>2026-04-19T16:11:31.999Z</time></trkpt><trkpt lat="45.66802030836577" lon="3.1005732150684167"><ele>461.66666666666663</ele><time>2026-04-19T16:11:32.999Z</time></trkpt><trkpt lat="45.668107495354704" lon="3.1006442753768617"><ele>461.0</ele><time>2026-04-19T16:11:34.999Z</time></trkpt><trkpt lat="45.668217407918334" lon="3.1006684672603306"><ele>461.0</ele><time>2026-04-19T16:11:36.999Z</time></trkpt><trkpt lat="45.66833500567191" lon="3.100673756972626"><ele>461.0</ele><time>2026-04-19T16:11:38.999Z</time></trkpt><trkpt lat="45.66839782155859" lon="3.100690147407043"><ele>461.0</ele><time>2026-04-19T16:11:39.999Z</time></trkpt><trkpt lat="45.66850335393526" lon="3.100747902716269"><ele>461.0</ele><time>2026-04-19T16:11:41.999Z</time></trkpt><trkpt lat="45.66859684333295" lon="3.1008474497612837"><ele>461.0</ele><time>2026-04-19T16:11:43.999Z</time></trkpt><trkpt lat="45.6686972692053" lon="3.1009413326488255"><ele>460.75</ele><time>2026-04-19T16:11:45.999Z</time></trkpt><trkpt lat="45.66878703132678" lon="3.101054505358802"><ele>460.5</ele><time>2026-04-19T16:11:47.999Z</time></trkpt><trkpt lat="45.66886167467718" lon="3.1011806425544304"><ele>460.25</ele><time>2026-04-19T16:11:49.999Z</time></trkpt><trkpt lat="45.66893534892738" lon="3.1013111085449494"><ele>460.0</ele><time>2026-04-19T16:11:51.999Z</time></trkpt><trkpt lat="45.669002530638316" lon="3.101449829802288"><ele>460.6</ele><time>2026-04-19T16:11:53.999Z</time></trkpt><trkpt lat="45.669030947118884" lon="3.101611060213995"><ele>461.2</ele><time>2026-04-19T16:11:55.999Z</time></trkpt><trkpt lat="45.669048751694696" lon="3.101760172169953"><ele>461.79999999999995</ele><time>2026-04-19T16:11:57.999Z</time></trkpt><trkpt lat="45.669059413357424" lon="3.101895375368856"><ele>462.4</ele><time>2026-04-19T16:11:59.999Z</time></trkpt><trkpt lat="45.66908102514647" lon="3.10201781015921"><ele>463.0</ele><time>2026-04-19T16:12:01.999Z</time></trkpt><trkpt lat="45.66910588900179" lon="3.1021119097260983"><ele>463.0</ele><time>2026-04-19T16:12:04Z</time></trkpt><trkpt lat="45.669145308971295" lon="3.102191508312303"><ele>462.99999999999994</ele><time>2026-04-19T16:12:08Z</time></trkpt><trkpt lat="45.66916698124052" lon="3.1022777102550636"><ele>463.0</ele><time>2026-04-19T16:12:11Z</time></trkpt><trkpt lat="45.66919919764096" lon="3.102374912903558"><ele>463.0</ele><time>2026-04-19T16:12:14Z</time></trkpt><trkpt lat="45.6692108961128" lon="3.1024848364905546"><ele>462.99999999999994</ele><time>2026-04-19T16:12:16Z</time></trkpt><trkpt lat="45.66927092884789" lon="3.102554284466892"><ele>463.0</ele><time>2026-04-19T16:12:19Z</time></trkpt><trkpt lat="45.669325197129936" lon="3.102617063242158"><ele>463.0</ele><time>2026-04-19T16:12:22Z</time></trkpt><trkpt lat="45.66939500314057" lon="3.102655367152631"><ele>462.6666666666667</ele><time>2026-04-19T16:12:25Z</time></trkpt><trkpt lat="45.66948253965751" lon="3.1027203000309727"><ele>462.33333333333337</ele><time>2026-04-19T16:12:28Z</time></trkpt><trkpt lat="45.66955192877162" lon="3.102779864052925"><ele>462.0</ele><time>2026-04-19T16:12:30Z</time></trkpt><trkpt lat="45.66962725723721" lon="3.1028577762686043"><ele>461.66666666666663</ele><time>2026-04-19T16:12:32Z</time></trkpt><trkpt lat="45.66968677000582" lon="3.102959671757723"><ele>461.3333333333333</ele><time>2026-04-19T16:12:34Z</time></trkpt><trkpt lat="45.66971571258008" lon="3.1030479957955692"><ele>461.0</ele><time>2026-04-19T16:12:36Z</time></trkpt><trkpt lat="45.66974159214327" lon="3.1031559395949"><ele>461.8</ele><time>2026-04-19T16:12:38Z</time></trkpt><trkpt lat="45.66975613251153" lon="3.1032642605103082"><ele>462.6</ele><time>2026-04-19T16:12:40Z</time></trkpt><trkpt lat="45.66977315554493" lon="3.1033872942114185"><ele>463.4</ele><time>2026-04-19T16:12:42Z</time></trkpt><trkpt lat="45.669817874975074" lon="3.1035203666885196"><ele>464.2</ele><time>2026-04-19T16:12:44Z</time></trkpt><trkpt lat="45.669876165214646" lon="3.1035815240535487"><ele>465.0</ele><time>2026-04-19T16:12:46Z</time></trkpt><trkpt lat="45.66998571285916" lon="3.103579293192743"><ele>465.0</ele><time>2026-04-19T16:12:48Z</time></trkpt><trkpt lat="45.670062645967654" lon="3.103600265934744"><ele>465.0</ele><time>2026-04-19T16:12:49.999Z</time></trkpt><trkpt lat="45.67016121161559" lon="3.1036451462518113"><ele>465.0</ele><time>2026-04-19T16:12:51.999Z</time></trkpt><trkpt lat="45.670266933970375" lon="3.1037183219710687"><ele>465.0</ele><time>2026-04-19T16:12:53.999Z</time></trkpt><trkpt lat="45.67031649821035" lon="3.103791991074871"><ele>465.0</ele><time>2026-04-19T16:12:54.999Z</time></trkpt><trkpt lat="45.67036720758262" lon="3.1038512705527017"><ele>465.0</ele><time>2026-04-19T16:12:55.999Z</time></trkpt><trkpt lat="45.67042283412562" lon="3.1039130079366304"><ele>463.2</ele><time>2026-04-19T16:12:56.999Z</time></trkpt><trkpt lat="45.67050981864842" lon="3.1040561385152583"><ele>461.4</ele><time>2026-04-19T16:12:58.999Z</time></trkpt><trkpt lat="45.67052038683875" lon="3.1041552630399596"><ele>459.6</ele><time>2026-04-19T16:12:59.999Z</time></trkpt><trkpt lat="45.67051640677983" lon="3.104250557493999"><ele>457.8</ele><time>2026-04-19T16:13:00.999Z</time></trkpt><trkpt lat="45.67050355356013" lon="3.104402431456878"><ele>456.0</ele><time>2026-04-19T16:13:02.999Z</time></trkpt><trkpt lat="45.67050255236298" lon="3.1045527829984145"><ele>455.8</ele><time>2026-04-19T16:13:04.999Z</time></trkpt><trkpt lat="45.670498060250104" lon="3.1047007509083455"><ele>455.6</ele><time>2026-04-19T16:13:06.999Z</time></trkpt><trkpt lat="45.67050336388856" lon="3.10484444006836"><ele>455.4</ele><time>2026-04-19T16:13:08.999Z</time></trkpt><trkpt lat="45.6705031918116" lon="3.104986150025475"><ele>455.2</ele><time>2026-04-19T16:13:10.999Z</time></trkpt><trkpt lat="45.67050552989409" lon="3.1051309927379562"><ele>455.0</ele><time>2026-04-19T16:13:12.999Z</time></trkpt><trkpt lat="45.67047583920719" lon="3.105273997476154"><ele>455.0</ele><time>2026-04-19T16:13:14.999Z</time></trkpt><trkpt lat="45.67043440767495" lon="3.1054099804565607"><ele>455.0</ele><time>2026-04-19T16:13:16.999Z</time></trkpt><trkpt lat="45.67040167021684" lon="3.1055019198541505"><ele>455.0</ele><time>2026-04-19T16:13:19.999Z</time></trkpt><trkpt lat="45.670387483891666" lon="3.105612848800468"><ele>455.0</ele><time>2026-04-19T16:13:21.999Z</time></trkpt><trkpt lat="45.670549977516615" lon="3.105817282262459"><ele>454.6</ele><time>2026-04-19T16:13:25.999Z</time></trkpt><trkpt lat="45.670545967637885" lon="3.105959776382153"><ele>454.2</ele><time>2026-04-19T16:13:27.999Z</time></trkpt><trkpt lat="45.670559406256764" lon="3.1061141535228964"><ele>453.79999999999995</ele><time>2026-04-19T16:13:29.999Z</time></trkpt><trkpt lat="45.670569729378464" lon="3.106263038727712"><ele>453.4</ele><time>2026-04-19T16:13:31.999Z</time></trkpt><trkpt lat="45.67057044196569" lon="3.1064113230389956"><ele>453.0</ele><time>2026-04-19T16:13:33.999Z</time></trkpt><trkpt lat="45.67057911180993" lon="3.1065542686796555"><ele>452.8333333333333</ele><time>2026-04-19T16:13:35.999Z</time></trkpt><trkpt lat="45.67058469657839" lon="3.106689272956958"><ele>452.66666666666663</ele><time>2026-04-19T16:13:37.999Z</time></trkpt><trkpt lat="45.67058093320354" lon="3.106817139022271"><ele>452.5</ele><time>2026-04-19T16:13:39.999Z</time></trkpt><trkpt lat="45.67056125533907" lon="3.1069557422776084"><ele>452.3333333333333</ele><time>2026-04-19T16:13:43.999Z</time></trkpt><trkpt lat="45.67055021840125" lon="3.10707626655962"><ele>452.16666666666663</ele><time>2026-04-19T16:13:45.999Z</time></trkpt><trkpt lat="45.67053052271371" lon="3.107185996074625"><ele>452.0</ele><time>2026-04-19T16:13:47.999Z</time></trkpt><trkpt lat="45.670499914822045" lon="3.1072826432702128"><ele>452.0</ele><time>2026-04-19T16:13:49.999Z</time></trkpt><trkpt lat="45.67046587841813" lon="3.107368270679364"><ele>452.00000000000006</ele><time>2026-04-19T16:13:52.999Z</time></trkpt><trkpt lat="45.67051879463701" lon="3.1074912160790022"><ele>452.00000000000006</ele><time>2026-04-19T16:13:55.999Z</time></trkpt><trkpt lat="45.67059689532816" lon="3.107599186571804"><ele>452.0</ele><time>2026-04-19T16:13:57.999Z</time></trkpt><trkpt lat="45.67066148997433" lon="3.1077375393731543"><ele>452.0</ele><time>2026-04-19T16:13:59.999Z</time></trkpt><trkpt lat="45.67068022387507" lon="3.1078264223305325"><ele>451.40000000000003</ele><time>2026-04-19T16:14:00.999Z</time></trkpt><trkpt lat="45.67068577144086" lon="3.1079289318575345"><ele>450.80000000000007</ele><time>2026-04-19T16:14:01.999Z</time></trkpt><trkpt lat="45.67066283773674" lon="3.1081125732363164"><ele>450.2</ele><time>2026-04-19T16:14:03.999Z</time></trkpt><trkpt lat="45.67062794877633" lon="3.1082491230557867"><ele>449.6</ele><time>2026-04-19T16:14:05.998Z</time></trkpt><trkpt lat="45.670608388565135" lon="3.108386755906497"><ele>449.0</ele><time>2026-04-19T16:14:08Z</time></trkpt><trkpt lat="45.670605036629084" lon="3.108522017445737"><ele>449.0</ele><time>2026-04-19T16:14:10Z</time></trkpt><trkpt lat="45.67059684754164" lon="3.108646657799067"><ele>449.0</ele><time>2026-04-19T16:14:12Z</time></trkpt><trkpt lat="45.670582433109075" lon="3.108781421532205"><ele>449.0</ele><time>2026-04-19T16:14:14Z</time></trkpt><trkpt lat="45.67057805739825" lon="3.108915827634737"><ele>449.0</ele><time>2026-04-19T16:14:16Z</time></trkpt><trkpt lat="45.67057207136671" lon="3.1090508576672806"><ele>449.0</ele><time>2026-04-19T16:14:18Z</time></trkpt><trkpt lat="45.6705681500129" lon="3.109194931424033"><ele>449.0</ele><time>2026-04-19T16:14:20Z</time></trkpt><trkpt lat="45.670582174055234" lon="3.1093471213065236"><ele>449.0</ele><time>2026-04-19T16:14:22Z</time></trkpt><trkpt lat="45.67054254941893" lon="3.109498483783789"><ele>449.0</ele><time>2026-04-19T16:14:24Z</time></trkpt><trkpt lat="45.67046755275198" lon="3.1096209527490255"><ele>449.0</ele><time>2026-04-19T16:14:26Z</time></trkpt><trkpt lat="45.670360393026286" lon="3.109706227884951"><ele>449.6</ele><time>2026-04-19T16:14:28Z</time></trkpt><trkpt lat="45.67024435755271" lon="3.1096808430462026"><ele>450.2</ele><time>2026-04-19T16:14:30Z</time></trkpt><trkpt lat="45.67013535633404" lon="3.109665477152466"><ele>450.80000000000007</ele><time>2026-04-19T16:14:32Z</time></trkpt><trkpt lat="45.6701111072176" lon="3.1097717839210812"><ele>451.40000000000003</ele><time>2026-04-19T16:14:33Z</time></trkpt><trkpt lat="45.670051176581346" lon="3.109902717369201"><ele>452.0</ele><time>2026-04-19T16:14:35Z</time></trkpt><trkpt lat="45.66998302535794" lon="3.110013975672823"><ele>451.99999999999994</ele><time>2026-04-19T16:14:37Z</time></trkpt><trkpt lat="45.6699132066075" lon="3.110112077463388"><ele>452.0</ele><time>2026-04-19T16:14:39Z</time></trkpt><trkpt lat="45.6698629031658" lon="3.110197985556146"><ele>452.0</ele><time>2026-04-19T16:14:41Z</time></trkpt><trkpt lat="45.6698016970151" lon="3.1102582154312017"><ele>452.0</ele><time>2026-04-19T16:14:45.999Z</time></trkpt><trkpt lat="45.66985898023335" lon="3.110355996458867"><ele>451.99999999999994</ele><time>2026-04-19T16:14:46.999Z</time></trkpt><trkpt lat="45.66991906847849" lon="3.1104680373343974"><ele>452.0</ele><time>2026-04-19T16:14:48.999Z</time></trkpt><trkpt lat="45.66996209845744" lon="3.1105979208228756"><ele>452.0</ele><time>2026-04-19T16:14:50.999Z</time></trkpt><trkpt lat="45.67001799973485" lon="3.110731242548067"><ele>452.0</ele><time>2026-04-19T16:14:52.999Z</time></trkpt><trkpt lat="45.6700808213052" lon="3.1108638343717248"><ele>452.0</ele><time>2026-04-19T16:14:54.999Z</time></trkpt><trkpt lat="45.67013711511321" lon="3.1110060759846707"><ele>452.0</ele><time>2026-04-19T16:14:56.999Z</time></trkpt><trkpt lat="45.67019778123384" lon="3.1111467233930754"><ele>451.5</ele><time>2026-04-19T16:14:58.999Z</time></trkpt><trkpt lat="45.67025577261484" lon="3.111291670791738"><ele>451.0</ele><time>2026-04-19T16:15:00.999Z</time></trkpt><trkpt lat="45.67031505779205" lon="3.1114337406034225"><ele>450.5</ele><time>2026-04-19T16:15:02.999Z</time></trkpt><trkpt lat="45.67036889672435" lon="3.1115834397487676"><ele>450.0</ele><time>2026-04-19T16:15:04.999Z</time></trkpt><trkpt lat="45.67042586124269" lon="3.1117336877581705"><ele>449.1666666666667</ele><time>2026-04-19T16:15:06.999Z</time></trkpt><trkpt lat="45.67047556031807" lon="3.111882276885053"><ele>448.33333333333337</ele><time>2026-04-19T16:15:08.999Z</time></trkpt><trkpt lat="45.67050169479766" lon="3.1120538026240676"><ele>447.5</ele><time>2026-04-19T16:15:10.999Z</time></trkpt><trkpt lat="45.67050594320406" lon="3.1121452714899345"><ele>446.6666666666667</ele><time>2026-04-19T16:15:11.999Z</time></trkpt><trkpt lat="45.67051913985401" lon="3.1122365664728155"><ele>445.83333333333337</ele><time>2026-04-19T16:15:12.999Z</time></trkpt><trkpt lat="45.67052872814876" lon="3.112336272375635"><ele>445.0</ele><time>2026-04-19T16:15:13.999Z</time></trkpt><trkpt lat="45.67053720208758" lon="3.1124374875098217"><ele>444.1666666666667</ele><time>2026-04-19T16:15:14.999Z</time></trkpt><trkpt lat="45.670544057803596" lon="3.1125390047834602"><ele>443.33333333333337</ele><time>2026-04-19T16:15:15.999Z</time></trkpt><trkpt lat="45.67055485313895" lon="3.1126400932598997"><ele>442.5</ele><time>2026-04-19T16:15:16.999Z</time></trkpt><trkpt lat="45.67056398963131" lon="3.112730510992566"><ele>441.66666666666663</ele><time>2026-04-19T16:15:17.999Z</time></trkpt><trkpt lat="45.670582841897726" lon="3.112882886786788"><ele>440.8333333333333</ele><time>2026-04-19T16:15:19.999Z</time></trkpt><trkpt lat="45.67070649874603" lon="3.112930947231973"><ele>440.0</ele><time>2026-04-19T16:15:22.999Z</time></trkpt><trkpt lat="45.67080325031651" lon="3.112875037821973"><ele>440.0</ele><time>2026-04-19T16:15:24.999Z</time></trkpt><trkpt lat="45.670907214823906" lon="3.112800573337475"><ele>440.0</ele><time>2026-04-19T16:15:26.999Z</time></trkpt><trkpt lat="45.67099659385689" lon="3.1127336332240203"><ele>440.0</ele><time>2026-04-19T16:15:28.999Z</time></trkpt><trkpt lat="45.67106147621726" lon="3.112684063946609"><ele>440.0</ele><time>2026-04-19T16:15:30.999Z</time></trkpt><trkpt lat="45.67127298869005" lon="3.1127768038146764"><ele>440.0</ele><time>2026-04-19T16:15:39.999Z</time></trkpt><trkpt lat="45.671131208811126" lon="3.112948852755516"><ele>440.0</ele><time>2026-04-19T16:15:40.999Z</time></trkpt><trkpt lat="45.67114712816961" lon="3.1130702912486434"><ele>440.0</ele><time>2026-04-19T16:15:42.999Z</time></trkpt><trkpt lat="45.67100357236221" lon="3.11314571834204"><ele>440.0</ele><time>2026-04-19T16:15:44.999Z</time></trkpt><trkpt lat="45.671076217984954" lon="3.113041645029376"><ele>440.0</ele><time>2026-04-19T16:15:47.999Z</time></trkpt><trkpt lat="45.671111462287676" lon="3.1129584906920393"><ele>440.0</ele><time>2026-04-19T16:15:56.999Z</time></trkpt><trkpt lat="45.67107500854136" lon="3.1128643159969855"><ele>440.0</ele><time>2026-04-19T16:18:11.998Z</time></trkpt><trkpt lat="45.67096382904318" lon="3.112883232457359"><ele>440.0</ele><time>2026-04-19T16:18:12.998Z</time></trkpt><trkpt lat="45.670927948673004" lon="3.1127401742345335"><ele>440.0</ele><time>2026-04-19T16:18:14.998Z</time></trkpt><trkpt lat="45.67089171639323" lon="3.112595711198264"><ele>439.66666666666663</ele><time>2026-04-19T16:18:16.998Z</time></trkpt><trkpt lat="45.67119277128985" lon="3.11255855095228"><ele>439.33333333333337</ele><time>2026-04-19T16:18:17.998Z</time></trkpt><trkpt lat="45.67128445403402" lon="3.112498702514627"><ele>439.0</ele><time>2026-04-19T16:18:19Z</time></trkpt><trkpt lat="45.67136225865908" lon="3.1124208623446235"><ele>439.0</ele><time>2026-04-19T16:18:20Z</time></trkpt><trkpt lat="45.67145099087394" lon="3.1122165267518414"><ele>439.0</ele><time>2026-04-19T16:18:21Z</time></trkpt><trkpt lat="45.6712827545655" lon="3.1124019674010985"><ele>439.0</ele><time>2026-04-19T16:18:22Z</time></trkpt><trkpt lat="45.67125097881982" lon="3.1124978275988484"><ele>439.0</ele><time>2026-04-19T16:18:28Z</time></trkpt><trkpt lat="45.671216056186175" lon="3.112591315019839"><ele>439.0</ele><time>2026-04-19T16:18:34Z</time></trkpt><trkpt lat="45.67118606040104" lon="3.1126817934324365"><ele>439.0</ele><time>2026-04-19T16:18:40Z</time></trkpt><trkpt lat="45.671154822800645" lon="3.112768829388565"><ele>439.0</ele><time>2026-04-19T16:18:46Z</time></trkpt><trkpt lat="45.67107667633091" lon="3.1129856215005267"><ele>439.0</ele><time>2026-04-19T16:21:16.999Z</time></trkpt><trkpt lat="45.67103067249541" lon="3.1129035817361825"><ele>440.0</ele><time>2026-04-19T16:22:24.998Z</time></trkpt><trkpt lat="45.670994812934545" lon="3.112803375530453"><ele>440.0</ele><time>2026-04-19T16:22:27.998Z</time></trkpt><trkpt lat="45.671098935710766" lon="3.112960945821356"><ele>440.0</ele><time>2026-04-19T16:23:53Z</time></trkpt><trkpt lat="45.67116009988191" lon="3.1130485790476"><ele>439.0</ele><time>2026-04-19T16:23:59Z</time></trkpt></trkseg></trk></gpx>